<?xml version="1.0" encoding="UTF-8" standalone="no" ?>
<gpx xmlns="http://www.topografix.com/GPX/1/1" xmlns:xsi="http://www.w3.org/2001/XMLSchema-instance" xsi:schemaLocation="http://www.topografix.com/GPX/1/1 http://www.topografix.com/GPX/1/1/gpx.xsd" version="1.1" creator="VisuGPX - https://www.visugpx.com">
  <metadata>
    <name>RSPG Dévoluy Pierre Baudinard</name>
    <desc><![CDATA[Adépart de Villard Joli, prendre le chemin qui monte jusqu'à la cabane de Pierre Baudinard, Continuer ensuite plein sud par le sentier vers la cabane Pastorale du vallon de Droulliet puis descendre vers le hameau de Villard Joli par le chemin.]]></desc>
  </metadata>
  <trk>
    <name><![CDATA[Pierre Baudinardl: 09 NOV 2017 09:14]]></name>
    <trkseg>
      <trkpt lat="44.72896" lon="5.88741">
        <ele>1199.38</ele>
        <time>2017-11-09T08:14:10Z</time>
      </trkpt>
      <trkpt lat="44.72896" lon="5.88741">
        <ele>1201.3</ele>
        <time>2017-11-09T08:14:11Z</time>
      </trkpt>
      <trkpt lat="44.72896" lon="5.88741">
        <ele>1204.67</ele>
        <time>2017-11-09T08:14:13Z</time>
      </trkpt>
      <trkpt lat="44.72896" lon="5.8874">
        <ele>1208.03</ele>
        <time>2017-11-09T08:14:15Z</time>
      </trkpt>
      <trkpt lat="44.72896" lon="5.8874">
        <ele>1211.4</ele>
        <time>2017-11-09T08:14:17Z</time>
      </trkpt>
      <trkpt lat="44.72896" lon="5.8874">
        <ele>1214.76</ele>
        <time>2017-11-09T08:14:19Z</time>
      </trkpt>
      <trkpt lat="44.72897" lon="5.88741">
        <ele>1219.09</ele>
        <time>2017-11-09T08:14:22Z</time>
      </trkpt>
      <trkpt lat="44.72897" lon="5.8874">
        <ele>1222.93</ele>
        <time>2017-11-09T08:14:25Z</time>
      </trkpt>
      <trkpt lat="44.72897" lon="5.88738">
        <ele>1226.78</ele>
        <time>2017-11-09T08:14:28Z</time>
      </trkpt>
      <trkpt lat="44.72896" lon="5.88738">
        <ele>1230.14</ele>
        <time>2017-11-09T08:14:31Z</time>
      </trkpt>
      <trkpt lat="44.72896" lon="5.88737">
        <ele>1233.03</ele>
        <time>2017-11-09T08:14:34Z</time>
      </trkpt>
      <trkpt lat="44.72896" lon="5.88737">
        <ele>1235.91</ele>
        <time>2017-11-09T08:14:37Z</time>
      </trkpt>
      <trkpt lat="44.72896" lon="5.88736">
        <ele>1239.76</ele>
        <time>2017-11-09T08:14:41Z</time>
      </trkpt>
      <trkpt lat="44.72896" lon="5.88737">
        <ele>1242.64</ele>
        <time>2017-11-09T08:14:45Z</time>
      </trkpt>
      <trkpt lat="44.72896" lon="5.88737">
        <ele>1245.04</ele>
        <time>2017-11-09T08:14:49Z</time>
      </trkpt>
      <trkpt lat="44.72895" lon="5.88737">
        <ele>1247.93</ele>
        <time>2017-11-09T08:14:53Z</time>
      </trkpt>
      <trkpt lat="44.72895" lon="5.88737">
        <ele>1251.29</ele>
        <time>2017-11-09T08:14:59Z</time>
      </trkpt>
      <trkpt lat="44.72895" lon="5.88736">
        <ele>1254.18</ele>
        <time>2017-11-09T08:15:05Z</time>
      </trkpt>
      <trkpt lat="44.72894" lon="5.88735">
        <ele>1257.06</ele>
        <time>2017-11-09T08:15:17Z</time>
      </trkpt>
      <trkpt lat="44.72893" lon="5.88734">
        <ele>1260.43</ele>
        <time>2017-11-09T08:15:31Z</time>
      </trkpt>
      <trkpt lat="44.72892" lon="5.88733">
        <ele>1344.54</ele>
        <time>2017-11-09T08:16:02Z</time>
      </trkpt>
      <trkpt lat="44.72892" lon="5.88733">
        <ele>1264.75</ele>
        <time>2017-11-09T08:16:06Z</time>
      </trkpt>
      <trkpt lat="44.72892" lon="5.88733">
        <ele>1265.23</ele>
        <time>2017-11-09T08:16:07Z</time>
      </trkpt>
      <trkpt lat="44.72893" lon="5.88735">
        <ele>1265.23</ele>
        <time>2017-11-09T08:16:25Z</time>
      </trkpt>
      <trkpt lat="44.72893" lon="5.88735">
        <ele>1265.23</ele>
        <time>2017-11-09T08:16:42Z</time>
      </trkpt>
      <trkpt lat="44.72893" lon="5.88735">
        <ele>1265.23</ele>
        <time>2017-11-09T08:16:57Z</time>
      </trkpt>
      <trkpt lat="44.72893" lon="5.88734">
        <ele>1265.23</ele>
        <time>2017-11-09T08:17:16Z</time>
      </trkpt>
      <trkpt lat="44.72912" lon="5.88736">
        <ele>1265.71</ele>
        <time>2017-11-09T08:17:32Z</time>
      </trkpt>
      <trkpt lat="44.72928" lon="5.88741">
        <ele>1266.67</ele>
        <time>2017-11-09T08:17:48Z</time>
      </trkpt>
      <trkpt lat="44.72942" lon="5.88735">
        <ele>1268.6</ele>
        <time>2017-11-09T08:18:05Z</time>
      </trkpt>
      <trkpt lat="44.72956" lon="5.88727">
        <ele>1270.52</ele>
        <time>2017-11-09T08:18:20Z</time>
      </trkpt>
      <trkpt lat="44.72956" lon="5.88726">
        <ele>1270.52</ele>
        <time>2017-11-09T08:18:21Z</time>
      </trkpt>
      <trkpt lat="44.7296" lon="5.88725">
        <ele>1271</ele>
        <time>2017-11-09T08:18:25Z</time>
      </trkpt>
      <trkpt lat="44.72975" lon="5.88719">
        <ele>1272.44</ele>
        <time>2017-11-09T08:18:41Z</time>
      </trkpt>
      <trkpt lat="44.7299" lon="5.88711">
        <ele>1273.88</ele>
        <time>2017-11-09T08:18:58Z</time>
      </trkpt>
      <trkpt lat="44.72995" lon="5.88708">
        <ele>1274.85</ele>
        <time>2017-11-09T08:19:11Z</time>
      </trkpt>
      <trkpt lat="44.72998" lon="5.88705">
        <ele>1275.33</ele>
        <time>2017-11-09T08:19:17Z</time>
      </trkpt>
      <trkpt lat="44.73004" lon="5.88698">
        <ele>1275.33</ele>
        <time>2017-11-09T08:19:23Z</time>
      </trkpt>
      <trkpt lat="44.73017" lon="5.88683">
        <ele>1275.81</ele>
        <time>2017-11-09T08:19:39Z</time>
      </trkpt>
      <trkpt lat="44.73029" lon="5.88665">
        <ele>1276.29</ele>
        <time>2017-11-09T08:19:56Z</time>
      </trkpt>
      <trkpt lat="44.7304" lon="5.88651">
        <ele>1277.25</ele>
        <time>2017-11-09T08:20:11Z</time>
      </trkpt>
      <trkpt lat="44.73052" lon="5.88643">
        <ele>1279.17</ele>
        <time>2017-11-09T08:20:25Z</time>
      </trkpt>
      <trkpt lat="44.73065" lon="5.88633">
        <ele>1281.57</ele>
        <time>2017-11-09T08:20:42Z</time>
      </trkpt>
      <trkpt lat="44.73078" lon="5.88623">
        <ele>1283.02</ele>
        <time>2017-11-09T08:20:59Z</time>
      </trkpt>
      <trkpt lat="44.7309" lon="5.88614">
        <ele>1285.9</ele>
        <time>2017-11-09T08:21:15Z</time>
      </trkpt>
      <trkpt lat="44.731" lon="5.88602">
        <ele>1287.34</ele>
        <time>2017-11-09T08:21:31Z</time>
      </trkpt>
      <trkpt lat="44.73103" lon="5.88599">
        <ele>1288.3</ele>
        <time>2017-11-09T08:21:45Z</time>
      </trkpt>
      <trkpt lat="44.73102" lon="5.88598">
        <ele>1288.3</ele>
        <time>2017-11-09T08:22:12Z</time>
      </trkpt>
      <trkpt lat="44.73103" lon="5.88598">
        <ele>1288.3</ele>
        <time>2017-11-09T08:22:33Z</time>
      </trkpt>
      <trkpt lat="44.73104" lon="5.88597">
        <ele>1287.82</ele>
        <time>2017-11-09T08:22:49Z</time>
      </trkpt>
      <trkpt lat="44.73103" lon="5.88599">
        <ele>1287.82</ele>
        <time>2017-11-09T08:23:11Z</time>
      </trkpt>
      <trkpt lat="44.73109" lon="5.88592">
        <ele>1287.82</ele>
        <time>2017-11-09T08:23:32Z</time>
      </trkpt>
      <trkpt lat="44.7311" lon="5.8859">
        <ele>1288.3</ele>
        <time>2017-11-09T08:23:34Z</time>
      </trkpt>
      <trkpt lat="44.73129" lon="5.88578">
        <ele>1287.34</ele>
        <time>2017-11-09T08:23:52Z</time>
      </trkpt>
      <trkpt lat="44.73144" lon="5.88572">
        <ele>1286.86</ele>
        <time>2017-11-09T08:24:07Z</time>
      </trkpt>
      <trkpt lat="44.73161" lon="5.88562">
        <ele>1286.86</ele>
        <time>2017-11-09T08:24:24Z</time>
      </trkpt>
      <trkpt lat="44.73176" lon="5.88547">
        <ele>1288.3</ele>
        <time>2017-11-09T08:24:42Z</time>
      </trkpt>
      <trkpt lat="44.73192" lon="5.88538">
        <ele>1289.75</ele>
        <time>2017-11-09T08:25:00Z</time>
      </trkpt>
      <trkpt lat="44.73206" lon="5.88529">
        <ele>1291.19</ele>
        <time>2017-11-09T08:25:16Z</time>
      </trkpt>
      <trkpt lat="44.73213" lon="5.88523">
        <ele>1292.15</ele>
        <time>2017-11-09T08:25:24Z</time>
      </trkpt>
      <trkpt lat="44.73226" lon="5.88516">
        <ele>1293.59</ele>
        <time>2017-11-09T08:25:39Z</time>
      </trkpt>
      <trkpt lat="44.7324" lon="5.88515">
        <ele>1295.51</ele>
        <time>2017-11-09T08:25:54Z</time>
      </trkpt>
      <trkpt lat="44.73255" lon="5.88514">
        <ele>1296.48</ele>
        <time>2017-11-09T08:26:11Z</time>
      </trkpt>
      <trkpt lat="44.73267" lon="5.88505">
        <ele>1295.99</ele>
        <time>2017-11-09T08:26:27Z</time>
      </trkpt>
      <trkpt lat="44.73279" lon="5.88497">
        <ele>1295.03</ele>
        <time>2017-11-09T08:26:41Z</time>
      </trkpt>
      <trkpt lat="44.73291" lon="5.8849">
        <ele>1293.11</ele>
        <time>2017-11-09T08:26:56Z</time>
      </trkpt>
      <trkpt lat="44.73302" lon="5.88483">
        <ele>1291.67</ele>
        <time>2017-11-09T08:27:09Z</time>
      </trkpt>
      <trkpt lat="44.73314" lon="5.88473">
        <ele>1289.75</ele>
        <time>2017-11-09T08:27:23Z</time>
      </trkpt>
      <trkpt lat="44.73324" lon="5.88461">
        <ele>1287.34</ele>
        <time>2017-11-09T08:27:37Z</time>
      </trkpt>
      <trkpt lat="44.73337" lon="5.88448">
        <ele>1284.94</ele>
        <time>2017-11-09T08:27:53Z</time>
      </trkpt>
      <trkpt lat="44.73352" lon="5.88442">
        <ele>1282.54</ele>
        <time>2017-11-09T08:28:08Z</time>
      </trkpt>
      <trkpt lat="44.73367" lon="5.88432">
        <ele>1280.13</ele>
        <time>2017-11-09T08:28:24Z</time>
      </trkpt>
      <trkpt lat="44.73379" lon="5.88414">
        <ele>1277.73</ele>
        <time>2017-11-09T08:28:41Z</time>
      </trkpt>
      <trkpt lat="44.7339" lon="5.884">
        <ele>1275.33</ele>
        <time>2017-11-09T08:28:57Z</time>
      </trkpt>
      <trkpt lat="44.734" lon="5.88387">
        <ele>1275.33</ele>
        <time>2017-11-09T08:29:11Z</time>
      </trkpt>
      <trkpt lat="44.73409" lon="5.8837">
        <ele>1274.85</ele>
        <time>2017-11-09T08:29:26Z</time>
      </trkpt>
      <trkpt lat="44.73418" lon="5.88351">
        <ele>1274.85</ele>
        <time>2017-11-09T08:29:41Z</time>
      </trkpt>
      <trkpt lat="44.73424" lon="5.88339">
        <ele>1275.81</ele>
        <time>2017-11-09T08:29:53Z</time>
      </trkpt>
      <trkpt lat="44.73432" lon="5.88321">
        <ele>1274.85</ele>
        <time>2017-11-09T08:30:07Z</time>
      </trkpt>
      <trkpt lat="44.7344" lon="5.88303">
        <ele>1274.36</ele>
        <time>2017-11-09T08:30:22Z</time>
      </trkpt>
      <trkpt lat="44.73447" lon="5.88283">
        <ele>1273.4</ele>
        <time>2017-11-09T08:30:38Z</time>
      </trkpt>
      <trkpt lat="44.73454" lon="5.88266">
        <ele>1272.92</ele>
        <time>2017-11-09T08:30:53Z</time>
      </trkpt>
      <trkpt lat="44.73461" lon="5.88253">
        <ele>1272.92</ele>
        <time>2017-11-09T08:31:06Z</time>
      </trkpt>
      <trkpt lat="44.73463" lon="5.8825">
        <ele>1272.92</ele>
        <time>2017-11-09T08:31:09Z</time>
      </trkpt>
      <trkpt lat="44.73476" lon="5.88238">
        <ele>1271.48</ele>
        <time>2017-11-09T08:31:22Z</time>
      </trkpt>
      <trkpt lat="44.73488" lon="5.88228">
        <ele>1270.04</ele>
        <time>2017-11-09T08:31:36Z</time>
      </trkpt>
      <trkpt lat="44.73502" lon="5.8822">
        <ele>1269.56</ele>
        <time>2017-11-09T08:31:51Z</time>
      </trkpt>
      <trkpt lat="44.73513" lon="5.88207">
        <ele>1270.52</ele>
        <time>2017-11-09T08:32:06Z</time>
      </trkpt>
      <trkpt lat="44.73525" lon="5.88196">
        <ele>1271.96</ele>
        <time>2017-11-09T08:32:21Z</time>
      </trkpt>
      <trkpt lat="44.73535" lon="5.88185">
        <ele>1273.88</ele>
        <time>2017-11-09T08:32:35Z</time>
      </trkpt>
      <trkpt lat="44.7354" lon="5.88169">
        <ele>1275.33</ele>
        <time>2017-11-09T08:32:49Z</time>
      </trkpt>
      <trkpt lat="44.73542" lon="5.88163">
        <ele>1275.81</ele>
        <time>2017-11-09T08:32:54Z</time>
      </trkpt>
      <trkpt lat="44.73548" lon="5.88148">
        <ele>1276.77</ele>
        <time>2017-11-09T08:33:08Z</time>
      </trkpt>
      <trkpt lat="44.73558" lon="5.88135">
        <ele>1276.29</ele>
        <time>2017-11-09T08:33:21Z</time>
      </trkpt>
      <trkpt lat="44.73571" lon="5.88134">
        <ele>1277.25</ele>
        <time>2017-11-09T08:33:35Z</time>
      </trkpt>
      <trkpt lat="44.73586" lon="5.88133">
        <ele>1278.21</ele>
        <time>2017-11-09T08:33:50Z</time>
      </trkpt>
      <trkpt lat="44.736" lon="5.88134">
        <ele>1279.65</ele>
        <time>2017-11-09T08:34:06Z</time>
      </trkpt>
      <trkpt lat="44.73602" lon="5.88133">
        <ele>1279.65</ele>
        <time>2017-11-09T08:34:08Z</time>
      </trkpt>
      <trkpt lat="44.73615" lon="5.88131">
        <ele>1281.09</ele>
        <time>2017-11-09T08:34:23Z</time>
      </trkpt>
      <trkpt lat="44.73628" lon="5.88126">
        <ele>1281.09</ele>
        <time>2017-11-09T08:34:38Z</time>
      </trkpt>
      <trkpt lat="44.73644" lon="5.88119">
        <ele>1282.06</ele>
        <time>2017-11-09T08:34:54Z</time>
      </trkpt>
      <trkpt lat="44.73657" lon="5.88116">
        <ele>1282.54</ele>
        <time>2017-11-09T08:35:09Z</time>
      </trkpt>
      <trkpt lat="44.73672" lon="5.88115">
        <ele>1284.46</ele>
        <time>2017-11-09T08:35:24Z</time>
      </trkpt>
      <trkpt lat="44.73673" lon="5.88115">
        <ele>1284.46</ele>
        <time>2017-11-09T08:35:25Z</time>
      </trkpt>
      <trkpt lat="44.73686" lon="5.88112">
        <ele>1285.9</ele>
        <time>2017-11-09T08:35:40Z</time>
      </trkpt>
      <trkpt lat="44.73697" lon="5.88103">
        <ele>1286.38</ele>
        <time>2017-11-09T08:35:54Z</time>
      </trkpt>
      <trkpt lat="44.73706" lon="5.88093">
        <ele>1288.3</ele>
        <time>2017-11-09T08:36:10Z</time>
      </trkpt>
      <trkpt lat="44.73706" lon="5.88097">
        <ele>1288.3</ele>
        <time>2017-11-09T08:36:24Z</time>
      </trkpt>
      <trkpt lat="44.73707" lon="5.88095">
        <ele>1288.3</ele>
        <time>2017-11-09T08:36:45Z</time>
      </trkpt>
      <trkpt lat="44.73708" lon="5.88096">
        <ele>1287.34</ele>
        <time>2017-11-09T08:36:55Z</time>
      </trkpt>
      <trkpt lat="44.73707" lon="5.88097">
        <ele>1288.3</ele>
        <time>2017-11-09T08:37:12Z</time>
      </trkpt>
      <trkpt lat="44.73706" lon="5.88097">
        <ele>1288.3</ele>
        <time>2017-11-09T08:37:30Z</time>
      </trkpt>
      <trkpt lat="44.73704" lon="5.88098">
        <ele>1288.78</ele>
        <time>2017-11-09T08:37:48Z</time>
      </trkpt>
      <trkpt lat="44.73707" lon="5.88095">
        <ele>1288.78</ele>
        <time>2017-11-09T08:38:11Z</time>
      </trkpt>
      <trkpt lat="44.73711" lon="5.88093">
        <ele>1289.27</ele>
        <time>2017-11-09T08:38:23Z</time>
      </trkpt>
      <trkpt lat="44.73717" lon="5.88081">
        <ele>1290.71</ele>
        <time>2017-11-09T08:38:34Z</time>
      </trkpt>
      <trkpt lat="44.73725" lon="5.8807">
        <ele>1292.63</ele>
        <time>2017-11-09T08:38:47Z</time>
      </trkpt>
      <trkpt lat="44.73727" lon="5.88069">
        <ele>1292.63</ele>
        <time>2017-11-09T08:38:50Z</time>
      </trkpt>
      <trkpt lat="44.73734" lon="5.88058">
        <ele>1294.55</ele>
        <time>2017-11-09T08:39:03Z</time>
      </trkpt>
      <trkpt lat="44.73739" lon="5.88044">
        <ele>1297.44</ele>
        <time>2017-11-09T08:39:18Z</time>
      </trkpt>
      <trkpt lat="44.73745" lon="5.88033">
        <ele>1299.84</ele>
        <time>2017-11-09T08:39:32Z</time>
      </trkpt>
      <trkpt lat="44.73753" lon="5.88021">
        <ele>1301.76</ele>
        <time>2017-11-09T08:39:46Z</time>
      </trkpt>
      <trkpt lat="44.73756" lon="5.88018">
        <ele>1302.72</ele>
        <time>2017-11-09T08:39:51Z</time>
      </trkpt>
      <trkpt lat="44.73767" lon="5.88015">
        <ele>1304.65</ele>
        <time>2017-11-09T08:40:06Z</time>
      </trkpt>
      <trkpt lat="44.73775" lon="5.88009">
        <ele>1306.57</ele>
        <time>2017-11-09T08:40:19Z</time>
      </trkpt>
      <trkpt lat="44.73779" lon="5.88005">
        <ele>1308.01</ele>
        <time>2017-11-09T08:40:29Z</time>
      </trkpt>
      <trkpt lat="44.73787" lon="5.88">
        <ele>1309.45</ele>
        <time>2017-11-09T08:40:41Z</time>
      </trkpt>
      <trkpt lat="44.73792" lon="5.87997">
        <ele>1309.93</ele>
        <time>2017-11-09T08:40:48Z</time>
      </trkpt>
      <trkpt lat="44.73794" lon="5.87994">
        <ele>1311.38</ele>
        <time>2017-11-09T08:40:51Z</time>
      </trkpt>
      <trkpt lat="44.73799" lon="5.87985">
        <ele>1312.82</ele>
        <time>2017-11-09T08:41:03Z</time>
      </trkpt>
      <trkpt lat="44.73801" lon="5.87973">
        <ele>1315.22</ele>
        <time>2017-11-09T08:41:17Z</time>
      </trkpt>
      <trkpt lat="44.73803" lon="5.87967">
        <ele>1315.7</ele>
        <time>2017-11-09T08:41:22Z</time>
      </trkpt>
      <trkpt lat="44.73806" lon="5.87954">
        <ele>1318.1</ele>
        <time>2017-11-09T08:41:36Z</time>
      </trkpt>
      <trkpt lat="44.73811" lon="5.87943">
        <ele>1320.51</ele>
        <time>2017-11-09T08:41:51Z</time>
      </trkpt>
      <trkpt lat="44.73816" lon="5.87931">
        <ele>1322.91</ele>
        <time>2017-11-09T08:42:05Z</time>
      </trkpt>
      <trkpt lat="44.73825" lon="5.87924">
        <ele>1324.83</ele>
        <time>2017-11-09T08:42:19Z</time>
      </trkpt>
      <trkpt lat="44.7383" lon="5.87919">
        <ele>1326.28</ele>
        <time>2017-11-09T08:42:27Z</time>
      </trkpt>
      <trkpt lat="44.73842" lon="5.87921">
        <ele>1326.76</ele>
        <time>2017-11-09T08:42:41Z</time>
      </trkpt>
      <trkpt lat="44.73845" lon="5.87922">
        <ele>1327.24</ele>
        <time>2017-11-09T08:42:53Z</time>
      </trkpt>
      <trkpt lat="44.73849" lon="5.87911">
        <ele>1328.2</ele>
        <time>2017-11-09T08:43:06Z</time>
      </trkpt>
      <trkpt lat="44.7385" lon="5.87909">
        <ele>1329.16</ele>
        <time>2017-11-09T08:43:19Z</time>
      </trkpt>
      <trkpt lat="44.73853" lon="5.87893">
        <ele>1331.56</ele>
        <time>2017-11-09T08:43:33Z</time>
      </trkpt>
      <trkpt lat="44.73855" lon="5.87879">
        <ele>1333.01</ele>
        <time>2017-11-09T08:43:47Z</time>
      </trkpt>
      <trkpt lat="44.73858" lon="5.87868">
        <ele>1335.41</ele>
        <time>2017-11-09T08:44:00Z</time>
      </trkpt>
      <trkpt lat="44.73863" lon="5.87857">
        <ele>1337.81</ele>
        <time>2017-11-09T08:44:13Z</time>
      </trkpt>
      <trkpt lat="44.73868" lon="5.87843">
        <ele>1339.73</ele>
        <time>2017-11-09T08:44:28Z</time>
      </trkpt>
      <trkpt lat="44.73872" lon="5.87842">
        <ele>1341.18</ele>
        <time>2017-11-09T08:44:42Z</time>
      </trkpt>
      <trkpt lat="44.73885" lon="5.87838">
        <ele>1343.58</ele>
        <time>2017-11-09T08:44:59Z</time>
      </trkpt>
      <trkpt lat="44.73896" lon="5.87839">
        <ele>1345.02</ele>
        <time>2017-11-09T08:45:15Z</time>
      </trkpt>
      <trkpt lat="44.73906" lon="5.8784">
        <ele>1345.02</ele>
        <time>2017-11-09T08:45:28Z</time>
      </trkpt>
      <trkpt lat="44.73908" lon="5.87839">
        <ele>1345.5</ele>
        <time>2017-11-09T08:45:30Z</time>
      </trkpt>
      <trkpt lat="44.73916" lon="5.87828">
        <ele>1346.94</ele>
        <time>2017-11-09T08:45:44Z</time>
      </trkpt>
      <trkpt lat="44.7392" lon="5.87819">
        <ele>1349.35</ele>
        <time>2017-11-09T08:46:00Z</time>
      </trkpt>
      <trkpt lat="44.73919" lon="5.87807">
        <ele>1351.75</ele>
        <time>2017-11-09T08:46:15Z</time>
      </trkpt>
      <trkpt lat="44.73919" lon="5.87794">
        <ele>1354.15</ele>
        <time>2017-11-09T08:46:29Z</time>
      </trkpt>
      <trkpt lat="44.73916" lon="5.87783">
        <ele>1356.56</ele>
        <time>2017-11-09T08:46:44Z</time>
      </trkpt>
      <trkpt lat="44.73909" lon="5.87771">
        <ele>1358.96</ele>
        <time>2017-11-09T08:47:00Z</time>
      </trkpt>
      <trkpt lat="44.73905" lon="5.87761">
        <ele>1360.88</ele>
        <time>2017-11-09T08:47:15Z</time>
      </trkpt>
      <trkpt lat="44.73906" lon="5.87766">
        <ele>1360.88</ele>
        <time>2017-11-09T08:47:40Z</time>
      </trkpt>
      <trkpt lat="44.73908" lon="5.87766">
        <ele>1360.88</ele>
        <time>2017-11-09T08:47:59Z</time>
      </trkpt>
      <trkpt lat="44.73904" lon="5.87758">
        <ele>1361.36</ele>
        <time>2017-11-09T08:48:18Z</time>
      </trkpt>
      <trkpt lat="44.73907" lon="5.87761">
        <ele>1361.36</ele>
        <time>2017-11-09T08:48:36Z</time>
      </trkpt>
      <trkpt lat="44.73908" lon="5.87762">
        <ele>1361.36</ele>
        <time>2017-11-09T08:49:03Z</time>
      </trkpt>
      <trkpt lat="44.73908" lon="5.87758">
        <ele>1360.88</ele>
        <time>2017-11-09T08:49:26Z</time>
      </trkpt>
      <trkpt lat="44.73908" lon="5.87759">
        <ele>1360.88</ele>
        <time>2017-11-09T08:49:55Z</time>
      </trkpt>
      <trkpt lat="44.73906" lon="5.87759">
        <ele>1360.4</ele>
        <time>2017-11-09T08:50:12Z</time>
      </trkpt>
      <trkpt lat="44.73906" lon="5.87756">
        <ele>1360.88</ele>
        <time>2017-11-09T08:50:29Z</time>
      </trkpt>
      <trkpt lat="44.73906" lon="5.8776">
        <ele>1360.4</ele>
        <time>2017-11-09T08:50:56Z</time>
      </trkpt>
      <trkpt lat="44.73905" lon="5.8776">
        <ele>1360.4</ele>
        <time>2017-11-09T08:51:21Z</time>
      </trkpt>
      <trkpt lat="44.73905" lon="5.8776">
        <ele>1360.4</ele>
        <time>2017-11-09T08:51:48Z</time>
      </trkpt>
      <trkpt lat="44.73905" lon="5.87761">
        <ele>1360.4</ele>
        <time>2017-11-09T08:52:19Z</time>
      </trkpt>
      <trkpt lat="44.73906" lon="5.8776">
        <ele>1360.4</ele>
        <time>2017-11-09T08:52:53Z</time>
      </trkpt>
      <trkpt lat="44.73906" lon="5.8776">
        <ele>1359.92</ele>
        <time>2017-11-09T08:53:05Z</time>
      </trkpt>
      <trkpt lat="44.73907" lon="5.87758">
        <ele>1360.88</ele>
        <time>2017-11-09T08:53:13Z</time>
      </trkpt>
      <trkpt lat="44.73908" lon="5.87762">
        <ele>1361.84</ele>
        <time>2017-11-09T08:53:27Z</time>
      </trkpt>
      <trkpt lat="44.73909" lon="5.87761">
        <ele>1360.88</ele>
        <time>2017-11-09T08:53:44Z</time>
      </trkpt>
      <trkpt lat="44.73907" lon="5.87763">
        <ele>1360.88</ele>
        <time>2017-11-09T08:54:17Z</time>
      </trkpt>
      <trkpt lat="44.73907" lon="5.87762">
        <ele>1360.88</ele>
        <time>2017-11-09T08:54:40Z</time>
      </trkpt>
      <trkpt lat="44.73909" lon="5.87759">
        <ele>1361.36</ele>
        <time>2017-11-09T08:55:04Z</time>
      </trkpt>
      <trkpt lat="44.73908" lon="5.8776">
        <ele>1360.4</ele>
        <time>2017-11-09T08:55:38Z</time>
      </trkpt>
      <trkpt lat="44.73912" lon="5.8776">
        <ele>1360.4</ele>
        <time>2017-11-09T08:56:14Z</time>
      </trkpt>
      <trkpt lat="44.73911" lon="5.87761">
        <ele>1360.4</ele>
        <time>2017-11-09T08:56:52Z</time>
      </trkpt>
      <trkpt lat="44.7391" lon="5.87759">
        <ele>1360.4</ele>
        <time>2017-11-09T08:57:27Z</time>
      </trkpt>
      <trkpt lat="44.73907" lon="5.8776">
        <ele>1360.4</ele>
        <time>2017-11-09T08:58:06Z</time>
      </trkpt>
      <trkpt lat="44.73901" lon="5.87748">
        <ele>1361.84</ele>
        <time>2017-11-09T08:58:28Z</time>
      </trkpt>
      <trkpt lat="44.739" lon="5.87736">
        <ele>1363.77</ele>
        <time>2017-11-09T08:58:41Z</time>
      </trkpt>
      <trkpt lat="44.73902" lon="5.87724">
        <ele>1365.69</ele>
        <time>2017-11-09T08:58:54Z</time>
      </trkpt>
      <trkpt lat="44.73907" lon="5.87714">
        <ele>1368.57</ele>
        <time>2017-11-09T08:59:08Z</time>
      </trkpt>
      <trkpt lat="44.73911" lon="5.87709">
        <ele>1370.02</ele>
        <time>2017-11-09T08:59:18Z</time>
      </trkpt>
      <trkpt lat="44.73918" lon="5.87702">
        <ele>1372.42</ele>
        <time>2017-11-09T08:59:33Z</time>
      </trkpt>
      <trkpt lat="44.73926" lon="5.87695">
        <ele>1374.82</ele>
        <time>2017-11-09T08:59:49Z</time>
      </trkpt>
      <trkpt lat="44.73932" lon="5.87687">
        <ele>1376.75</ele>
        <time>2017-11-09T09:00:01Z</time>
      </trkpt>
      <trkpt lat="44.7394" lon="5.87683">
        <ele>1379.15</ele>
        <time>2017-11-09T09:00:16Z</time>
      </trkpt>
      <trkpt lat="44.73947" lon="5.87675">
        <ele>1381.07</ele>
        <time>2017-11-09T09:00:30Z</time>
      </trkpt>
      <trkpt lat="44.73952" lon="5.87668">
        <ele>1382.99</ele>
        <time>2017-11-09T09:00:42Z</time>
      </trkpt>
      <trkpt lat="44.73955" lon="5.87657">
        <ele>1384.92</ele>
        <time>2017-11-09T09:00:56Z</time>
      </trkpt>
      <trkpt lat="44.73953" lon="5.87646">
        <ele>1386.84</ele>
        <time>2017-11-09T09:01:11Z</time>
      </trkpt>
      <trkpt lat="44.73956" lon="5.87633">
        <ele>1388.76</ele>
        <time>2017-11-09T09:01:25Z</time>
      </trkpt>
      <trkpt lat="44.7396" lon="5.87619">
        <ele>1390.68</ele>
        <time>2017-11-09T09:01:40Z</time>
      </trkpt>
      <trkpt lat="44.73966" lon="5.87606">
        <ele>1393.09</ele>
        <time>2017-11-09T09:01:56Z</time>
      </trkpt>
      <trkpt lat="44.73972" lon="5.87595">
        <ele>1395.01</ele>
        <time>2017-11-09T09:02:12Z</time>
      </trkpt>
      <trkpt lat="44.73979" lon="5.87592">
        <ele>1396.93</ele>
        <time>2017-11-09T09:02:24Z</time>
      </trkpt>
      <trkpt lat="44.73988" lon="5.87586">
        <ele>1398.86</ele>
        <time>2017-11-09T09:02:40Z</time>
      </trkpt>
      <trkpt lat="44.73994" lon="5.87575">
        <ele>1401.74</ele>
        <time>2017-11-09T09:02:57Z</time>
      </trkpt>
      <trkpt lat="44.73996" lon="5.87574">
        <ele>1403.18</ele>
        <time>2017-11-09T09:03:13Z</time>
      </trkpt>
      <trkpt lat="44.73999" lon="5.87575">
        <ele>1404.14</ele>
        <time>2017-11-09T09:03:30Z</time>
      </trkpt>
      <trkpt lat="44.73999" lon="5.87571">
        <ele>1404.62</ele>
        <time>2017-11-09T09:03:58Z</time>
      </trkpt>
      <trkpt lat="44.73996" lon="5.87571">
        <ele>1404.14</ele>
        <time>2017-11-09T09:04:33Z</time>
      </trkpt>
      <trkpt lat="44.73997" lon="5.87572">
        <ele>1404.14</ele>
        <time>2017-11-09T09:05:07Z</time>
      </trkpt>
      <trkpt lat="44.73995" lon="5.87571">
        <ele>1403.66</ele>
        <time>2017-11-09T09:05:42Z</time>
      </trkpt>
      <trkpt lat="44.74004" lon="5.87572">
        <ele>1404.14</ele>
        <time>2017-11-09T09:06:02Z</time>
      </trkpt>
      <trkpt lat="44.74013" lon="5.87586">
        <ele>1406.07</ele>
        <time>2017-11-09T09:06:17Z</time>
      </trkpt>
      <trkpt lat="44.74022" lon="5.87595">
        <ele>1408.47</ele>
        <time>2017-11-09T09:06:33Z</time>
      </trkpt>
      <trkpt lat="44.74032" lon="5.87589">
        <ele>1409.91</ele>
        <time>2017-11-09T09:06:46Z</time>
      </trkpt>
      <trkpt lat="44.7404" lon="5.87581">
        <ele>1411.35</ele>
        <time>2017-11-09T09:07:00Z</time>
      </trkpt>
      <trkpt lat="44.74045" lon="5.87576">
        <ele>1411.83</ele>
        <time>2017-11-09T09:07:09Z</time>
      </trkpt>
      <trkpt lat="44.74056" lon="5.87572">
        <ele>1413.28</ele>
        <time>2017-11-09T09:07:23Z</time>
      </trkpt>
      <trkpt lat="44.74065" lon="5.87572">
        <ele>1414.72</ele>
        <time>2017-11-09T09:07:35Z</time>
      </trkpt>
      <trkpt lat="44.74075" lon="5.87571">
        <ele>1416.64</ele>
        <time>2017-11-09T09:07:50Z</time>
      </trkpt>
      <trkpt lat="44.74086" lon="5.87569">
        <ele>1417.6</ele>
        <time>2017-11-09T09:08:05Z</time>
      </trkpt>
      <trkpt lat="44.74093" lon="5.87565">
        <ele>1419.52</ele>
        <time>2017-11-09T09:08:18Z</time>
      </trkpt>
      <trkpt lat="44.74103" lon="5.87563">
        <ele>1421.45</ele>
        <time>2017-11-09T09:08:34Z</time>
      </trkpt>
      <trkpt lat="44.74112" lon="5.87554">
        <ele>1423.37</ele>
        <time>2017-11-09T09:08:49Z</time>
      </trkpt>
      <trkpt lat="44.74121" lon="5.87547">
        <ele>1425.77</ele>
        <time>2017-11-09T09:09:04Z</time>
      </trkpt>
      <trkpt lat="44.74124" lon="5.87531">
        <ele>1427.7</ele>
        <time>2017-11-09T09:09:20Z</time>
      </trkpt>
      <trkpt lat="44.74124" lon="5.8753">
        <ele>1428.18</ele>
        <time>2017-11-09T09:09:21Z</time>
      </trkpt>
      <trkpt lat="44.74131" lon="5.87516">
        <ele>1429.62</ele>
        <time>2017-11-09T09:09:37Z</time>
      </trkpt>
      <trkpt lat="44.74137" lon="5.87506">
        <ele>1430.58</ele>
        <time>2017-11-09T09:09:50Z</time>
      </trkpt>
      <trkpt lat="44.74144" lon="5.87495">
        <ele>1432.02</ele>
        <time>2017-11-09T09:10:04Z</time>
      </trkpt>
      <trkpt lat="44.74149" lon="5.8749">
        <ele>1433.46</ele>
        <time>2017-11-09T09:10:18Z</time>
      </trkpt>
      <trkpt lat="44.74151" lon="5.87487">
        <ele>1432.98</ele>
        <time>2017-11-09T09:10:29Z</time>
      </trkpt>
      <trkpt lat="44.74153" lon="5.87487">
        <ele>1433.46</ele>
        <time>2017-11-09T09:10:44Z</time>
      </trkpt>
      <trkpt lat="44.74156" lon="5.87489">
        <ele>1433.46</ele>
        <time>2017-11-09T09:11:00Z</time>
      </trkpt>
      <trkpt lat="44.74157" lon="5.87487">
        <ele>1433.94</ele>
        <time>2017-11-09T09:11:19Z</time>
      </trkpt>
      <trkpt lat="44.74157" lon="5.87485">
        <ele>1433.94</ele>
        <time>2017-11-09T09:11:44Z</time>
      </trkpt>
      <trkpt lat="44.74161" lon="5.87475">
        <ele>1434.42</ele>
        <time>2017-11-09T09:11:58Z</time>
      </trkpt>
      <trkpt lat="44.74174" lon="5.87469">
        <ele>1436.35</ele>
        <time>2017-11-09T09:12:16Z</time>
      </trkpt>
      <trkpt lat="44.74185" lon="5.87477">
        <ele>1438.75</ele>
        <time>2017-11-09T09:12:30Z</time>
      </trkpt>
      <trkpt lat="44.74194" lon="5.87473">
        <ele>1440.19</ele>
        <time>2017-11-09T09:12:41Z</time>
      </trkpt>
      <trkpt lat="44.742" lon="5.87461">
        <ele>1442.6</ele>
        <time>2017-11-09T09:12:56Z</time>
      </trkpt>
      <trkpt lat="44.74206" lon="5.87449">
        <ele>1444.04</ele>
        <time>2017-11-09T09:13:07Z</time>
      </trkpt>
      <trkpt lat="44.7421" lon="5.8743">
        <ele>1445.48</ele>
        <time>2017-11-09T09:13:24Z</time>
      </trkpt>
      <trkpt lat="44.74215" lon="5.87419">
        <ele>1447.4</ele>
        <time>2017-11-09T09:13:38Z</time>
      </trkpt>
      <trkpt lat="44.74222" lon="5.87413">
        <ele>1449.81</ele>
        <time>2017-11-09T09:13:53Z</time>
      </trkpt>
      <trkpt lat="44.74233" lon="5.87418">
        <ele>1451.73</ele>
        <time>2017-11-09T09:14:07Z</time>
      </trkpt>
      <trkpt lat="44.74243" lon="5.87413">
        <ele>1453.17</ele>
        <time>2017-11-09T09:14:25Z</time>
      </trkpt>
      <trkpt lat="44.74252" lon="5.87405">
        <ele>1453.65</ele>
        <time>2017-11-09T09:14:38Z</time>
      </trkpt>
      <trkpt lat="44.74263" lon="5.87397">
        <ele>1455.09</ele>
        <time>2017-11-09T09:14:54Z</time>
      </trkpt>
      <trkpt lat="44.74275" lon="5.87397">
        <ele>1457.02</ele>
        <time>2017-11-09T09:15:10Z</time>
      </trkpt>
      <trkpt lat="44.74281" lon="5.87385">
        <ele>1459.42</ele>
        <time>2017-11-09T09:15:27Z</time>
      </trkpt>
      <trkpt lat="44.74278" lon="5.87374">
        <ele>1460.86</ele>
        <time>2017-11-09T09:15:40Z</time>
      </trkpt>
      <trkpt lat="44.74274" lon="5.87362">
        <ele>1462.3</ele>
        <time>2017-11-09T09:15:53Z</time>
      </trkpt>
      <trkpt lat="44.74273" lon="5.87357">
        <ele>1462.78</ele>
        <time>2017-11-09T09:15:59Z</time>
      </trkpt>
      <trkpt lat="44.74268" lon="5.87344">
        <ele>1464.23</ele>
        <time>2017-11-09T09:16:13Z</time>
      </trkpt>
      <trkpt lat="44.74264" lon="5.87333">
        <ele>1466.15</ele>
        <time>2017-11-09T09:16:26Z</time>
      </trkpt>
      <trkpt lat="44.74261" lon="5.87323">
        <ele>1468.07</ele>
        <time>2017-11-09T09:16:40Z</time>
      </trkpt>
      <trkpt lat="44.74257" lon="5.87315">
        <ele>1470.95</ele>
        <time>2017-11-09T09:16:53Z</time>
      </trkpt>
      <trkpt lat="44.74251" lon="5.87306">
        <ele>1473.36</ele>
        <time>2017-11-09T09:17:08Z</time>
      </trkpt>
      <trkpt lat="44.74247" lon="5.87292">
        <ele>1473.36</ele>
        <time>2017-11-09T09:17:22Z</time>
      </trkpt>
      <trkpt lat="44.74242" lon="5.87273">
        <ele>1474.32</ele>
        <time>2017-11-09T09:17:38Z</time>
      </trkpt>
      <trkpt lat="44.7424" lon="5.87257">
        <ele>1475.76</ele>
        <time>2017-11-09T09:17:54Z</time>
      </trkpt>
      <trkpt lat="44.74239" lon="5.87242">
        <ele>1476.72</ele>
        <time>2017-11-09T09:18:08Z</time>
      </trkpt>
      <trkpt lat="44.74241" lon="5.87243">
        <ele>1477.2</ele>
        <time>2017-11-09T09:18:21Z</time>
      </trkpt>
      <trkpt lat="44.74239" lon="5.87239">
        <ele>1477.2</ele>
        <time>2017-11-09T09:18:45Z</time>
      </trkpt>
      <trkpt lat="44.74241" lon="5.87242">
        <ele>1477.2</ele>
        <time>2017-11-09T09:18:59Z</time>
      </trkpt>
      <trkpt lat="44.7424" lon="5.87242">
        <ele>1477.68</ele>
        <time>2017-11-09T09:19:23Z</time>
      </trkpt>
      <trkpt lat="44.74241" lon="5.87242">
        <ele>1477.2</ele>
        <time>2017-11-09T09:19:42Z</time>
      </trkpt>
      <trkpt lat="44.74241" lon="5.87234">
        <ele>1477.68</ele>
        <time>2017-11-09T09:20:00Z</time>
      </trkpt>
      <trkpt lat="44.74239" lon="5.87235">
        <ele>1478.16</ele>
        <time>2017-11-09T09:20:17Z</time>
      </trkpt>
      <trkpt lat="44.7424" lon="5.87237">
        <ele>1477.68</ele>
        <time>2017-11-09T09:20:41Z</time>
      </trkpt>
      <trkpt lat="44.7424" lon="5.87238">
        <ele>1477.68</ele>
        <time>2017-11-09T09:21:01Z</time>
      </trkpt>
      <trkpt lat="44.74239" lon="5.87235">
        <ele>1477.68</ele>
        <time>2017-11-09T09:21:24Z</time>
      </trkpt>
      <trkpt lat="44.74242" lon="5.87237">
        <ele>1477.68</ele>
        <time>2017-11-09T09:21:54Z</time>
      </trkpt>
      <trkpt lat="44.7424" lon="5.8724">
        <ele>1478.16</ele>
        <time>2017-11-09T09:22:25Z</time>
      </trkpt>
      <trkpt lat="44.74237" lon="5.87234">
        <ele>1478.16</ele>
        <time>2017-11-09T09:22:49Z</time>
      </trkpt>
      <trkpt lat="44.74238" lon="5.87217">
        <ele>1479.61</ele>
        <time>2017-11-09T09:23:00Z</time>
      </trkpt>
      <trkpt lat="44.74243" lon="5.87198">
        <ele>1480.57</ele>
        <time>2017-11-09T09:23:18Z</time>
      </trkpt>
      <trkpt lat="44.74248" lon="5.87184">
        <ele>1483.45</ele>
        <time>2017-11-09T09:23:32Z</time>
      </trkpt>
      <trkpt lat="44.74255" lon="5.87172">
        <ele>1484.89</ele>
        <time>2017-11-09T09:23:48Z</time>
      </trkpt>
      <trkpt lat="44.74261" lon="5.87162">
        <ele>1486.82</ele>
        <time>2017-11-09T09:24:02Z</time>
      </trkpt>
      <trkpt lat="44.7427" lon="5.87159">
        <ele>1489.22</ele>
        <time>2017-11-09T09:24:16Z</time>
      </trkpt>
      <trkpt lat="44.74275" lon="5.87149">
        <ele>1490.66</ele>
        <time>2017-11-09T09:24:29Z</time>
      </trkpt>
      <trkpt lat="44.74285" lon="5.87143">
        <ele>1493.06</ele>
        <time>2017-11-09T09:24:46Z</time>
      </trkpt>
      <trkpt lat="44.74284" lon="5.8713">
        <ele>1494.99</ele>
        <time>2017-11-09T09:24:58Z</time>
      </trkpt>
      <trkpt lat="44.74278" lon="5.87118">
        <ele>1495.47</ele>
        <time>2017-11-09T09:25:11Z</time>
      </trkpt>
      <trkpt lat="44.74276" lon="5.87104">
        <ele>1497.87</ele>
        <time>2017-11-09T09:25:27Z</time>
      </trkpt>
      <trkpt lat="44.74276" lon="5.87092">
        <ele>1500.76</ele>
        <time>2017-11-09T09:25:43Z</time>
      </trkpt>
      <trkpt lat="44.74274" lon="5.87081">
        <ele>1501.72</ele>
        <time>2017-11-09T09:25:57Z</time>
      </trkpt>
      <trkpt lat="44.74274" lon="5.8707">
        <ele>1503.64</ele>
        <time>2017-11-09T09:26:12Z</time>
      </trkpt>
      <trkpt lat="44.74277" lon="5.87055">
        <ele>1506.52</ele>
        <time>2017-11-09T09:26:32Z</time>
      </trkpt>
      <trkpt lat="44.74281" lon="5.87038">
        <ele>1507.97</ele>
        <time>2017-11-09T09:26:49Z</time>
      </trkpt>
      <trkpt lat="44.74282" lon="5.87022">
        <ele>1508.45</ele>
        <time>2017-11-09T09:27:04Z</time>
      </trkpt>
      <trkpt lat="44.74281" lon="5.87004">
        <ele>1509.41</ele>
        <time>2017-11-09T09:27:19Z</time>
      </trkpt>
      <trkpt lat="44.74276" lon="5.86989">
        <ele>1510.85</ele>
        <time>2017-11-09T09:27:37Z</time>
      </trkpt>
      <trkpt lat="44.74272" lon="5.86978">
        <ele>1512.29</ele>
        <time>2017-11-09T09:27:50Z</time>
      </trkpt>
      <trkpt lat="44.74273" lon="5.86972">
        <ele>1513.73</ele>
        <time>2017-11-09T09:28:05Z</time>
      </trkpt>
      <trkpt lat="44.74266" lon="5.86955">
        <ele>1515.66</ele>
        <time>2017-11-09T09:28:20Z</time>
      </trkpt>
      <trkpt lat="44.74263" lon="5.86942">
        <ele>1517.58</ele>
        <time>2017-11-09T09:28:34Z</time>
      </trkpt>
      <trkpt lat="44.74261" lon="5.86929">
        <ele>1519.98</ele>
        <time>2017-11-09T09:28:49Z</time>
      </trkpt>
      <trkpt lat="44.74261" lon="5.86913">
        <ele>1522.87</ele>
        <time>2017-11-09T09:29:08Z</time>
      </trkpt>
      <trkpt lat="44.74263" lon="5.86901">
        <ele>1525.27</ele>
        <time>2017-11-09T09:29:22Z</time>
      </trkpt>
      <trkpt lat="44.7427" lon="5.86893">
        <ele>1526.71</ele>
        <time>2017-11-09T09:29:35Z</time>
      </trkpt>
      <trkpt lat="44.74279" lon="5.86887">
        <ele>1526.71</ele>
        <time>2017-11-09T09:29:48Z</time>
      </trkpt>
      <trkpt lat="44.74291" lon="5.86881">
        <ele>1527.19</ele>
        <time>2017-11-09T09:30:03Z</time>
      </trkpt>
      <trkpt lat="44.74303" lon="5.86872">
        <ele>1529.11</ele>
        <time>2017-11-09T09:30:20Z</time>
      </trkpt>
      <trkpt lat="44.74305" lon="5.86875">
        <ele>1529.59</ele>
        <time>2017-11-09T09:30:32Z</time>
      </trkpt>
      <trkpt lat="44.74305" lon="5.86876">
        <ele>1529.59</ele>
        <time>2017-11-09T09:30:56Z</time>
      </trkpt>
      <trkpt lat="44.74305" lon="5.86875">
        <ele>1529.59</ele>
        <time>2017-11-09T09:31:29Z</time>
      </trkpt>
      <trkpt lat="44.74305" lon="5.86874">
        <ele>1529.59</ele>
        <time>2017-11-09T09:31:55Z</time>
      </trkpt>
      <trkpt lat="44.74306" lon="5.86874">
        <ele>1529.59</ele>
        <time>2017-11-09T09:32:15Z</time>
      </trkpt>
      <trkpt lat="44.74304" lon="5.86874">
        <ele>1529.59</ele>
        <time>2017-11-09T09:32:44Z</time>
      </trkpt>
      <trkpt lat="44.74307" lon="5.86874">
        <ele>1530.08</ele>
        <time>2017-11-09T09:33:15Z</time>
      </trkpt>
      <trkpt lat="44.74316" lon="5.86868">
        <ele>1530.56</ele>
        <time>2017-11-09T09:33:36Z</time>
      </trkpt>
      <trkpt lat="44.74322" lon="5.8686">
        <ele>1532.48</ele>
        <time>2017-11-09T09:33:49Z</time>
      </trkpt>
      <trkpt lat="44.74315" lon="5.86853">
        <ele>1534.4</ele>
        <time>2017-11-09T09:34:04Z</time>
      </trkpt>
      <trkpt lat="44.74304" lon="5.86848">
        <ele>1535.36</ele>
        <time>2017-11-09T09:34:19Z</time>
      </trkpt>
      <trkpt lat="44.74291" lon="5.86839">
        <ele>1536.32</ele>
        <time>2017-11-09T09:34:37Z</time>
      </trkpt>
      <trkpt lat="44.74278" lon="5.86838">
        <ele>1536.8</ele>
        <time>2017-11-09T09:34:53Z</time>
      </trkpt>
      <trkpt lat="44.74264" lon="5.86844">
        <ele>1537.29</ele>
        <time>2017-11-09T09:35:11Z</time>
      </trkpt>
      <trkpt lat="44.74256" lon="5.86837">
        <ele>1538.73</ele>
        <time>2017-11-09T09:35:25Z</time>
      </trkpt>
      <trkpt lat="44.74249" lon="5.86831">
        <ele>1540.65</ele>
        <time>2017-11-09T09:35:38Z</time>
      </trkpt>
      <trkpt lat="44.74241" lon="5.86824">
        <ele>1541.13</ele>
        <time>2017-11-09T09:35:53Z</time>
      </trkpt>
      <trkpt lat="44.74233" lon="5.86822">
        <ele>1543.53</ele>
        <time>2017-11-09T09:36:08Z</time>
      </trkpt>
      <trkpt lat="44.74226" lon="5.86817">
        <ele>1544.98</ele>
        <time>2017-11-09T09:36:20Z</time>
      </trkpt>
      <trkpt lat="44.74217" lon="5.86808">
        <ele>1544.98</ele>
        <time>2017-11-09T09:36:35Z</time>
      </trkpt>
      <trkpt lat="44.74209" lon="5.86795">
        <ele>1544.98</ele>
        <time>2017-11-09T09:36:51Z</time>
      </trkpt>
      <trkpt lat="44.74203" lon="5.86784">
        <ele>1546.9</ele>
        <time>2017-11-09T09:37:04Z</time>
      </trkpt>
      <trkpt lat="44.74193" lon="5.86781">
        <ele>1547.86</ele>
        <time>2017-11-09T09:37:18Z</time>
      </trkpt>
      <trkpt lat="44.74182" lon="5.86781">
        <ele>1547.38</ele>
        <time>2017-11-09T09:37:32Z</time>
      </trkpt>
      <trkpt lat="44.74169" lon="5.86779">
        <ele>1547.38</ele>
        <time>2017-11-09T09:37:48Z</time>
      </trkpt>
      <trkpt lat="44.74156" lon="5.86774">
        <ele>1548.82</ele>
        <time>2017-11-09T09:38:04Z</time>
      </trkpt>
      <trkpt lat="44.74152" lon="5.86772">
        <ele>1549.3</ele>
        <time>2017-11-09T09:38:10Z</time>
      </trkpt>
      <trkpt lat="44.74142" lon="5.86757">
        <ele>1550.74</ele>
        <time>2017-11-09T09:38:27Z</time>
      </trkpt>
      <trkpt lat="44.74138" lon="5.86743">
        <ele>1552.67</ele>
        <time>2017-11-09T09:38:43Z</time>
      </trkpt>
      <trkpt lat="44.74134" lon="5.8673">
        <ele>1555.07</ele>
        <time>2017-11-09T09:39:01Z</time>
      </trkpt>
      <trkpt lat="44.74131" lon="5.86722">
        <ele>1556.99</ele>
        <time>2017-11-09T09:39:14Z</time>
      </trkpt>
      <trkpt lat="44.74126" lon="5.86715">
        <ele>1558.92</ele>
        <time>2017-11-09T09:39:28Z</time>
      </trkpt>
      <trkpt lat="44.74117" lon="5.86709">
        <ele>1561.32</ele>
        <time>2017-11-09T09:39:48Z</time>
      </trkpt>
      <trkpt lat="44.74108" lon="5.86704">
        <ele>1562.76</ele>
        <time>2017-11-09T09:40:03Z</time>
      </trkpt>
      <trkpt lat="44.74097" lon="5.86703">
        <ele>1564.2</ele>
        <time>2017-11-09T09:40:19Z</time>
      </trkpt>
      <trkpt lat="44.74086" lon="5.86704">
        <ele>1565.64</ele>
        <time>2017-11-09T09:40:34Z</time>
      </trkpt>
      <trkpt lat="44.74075" lon="5.86706">
        <ele>1566.12</ele>
        <time>2017-11-09T09:40:49Z</time>
      </trkpt>
      <trkpt lat="44.74064" lon="5.86705">
        <ele>1567.09</ele>
        <time>2017-11-09T09:41:06Z</time>
      </trkpt>
      <trkpt lat="44.74059" lon="5.86704">
        <ele>1568.53</ele>
        <time>2017-11-09T09:41:19Z</time>
      </trkpt>
      <trkpt lat="44.74053" lon="5.86697">
        <ele>1569.01</ele>
        <time>2017-11-09T09:41:32Z</time>
      </trkpt>
      <trkpt lat="44.74054" lon="5.86693">
        <ele>1569.97</ele>
        <time>2017-11-09T09:41:47Z</time>
      </trkpt>
      <trkpt lat="44.74053" lon="5.86689">
        <ele>1570.45</ele>
        <time>2017-11-09T09:41:59Z</time>
      </trkpt>
      <trkpt lat="44.74046" lon="5.86678">
        <ele>1571.89</ele>
        <time>2017-11-09T09:42:13Z</time>
      </trkpt>
      <trkpt lat="44.74041" lon="5.86668">
        <ele>1573.82</ele>
        <time>2017-11-09T09:42:26Z</time>
      </trkpt>
      <trkpt lat="44.74038" lon="5.86661">
        <ele>1575.26</ele>
        <time>2017-11-09T09:42:38Z</time>
      </trkpt>
      <trkpt lat="44.74033" lon="5.86654">
        <ele>1577.18</ele>
        <time>2017-11-09T09:42:52Z</time>
      </trkpt>
      <trkpt lat="44.74027" lon="5.86647">
        <ele>1578.62</ele>
        <time>2017-11-09T09:43:06Z</time>
      </trkpt>
      <trkpt lat="44.74022" lon="5.86637">
        <ele>1580.54</ele>
        <time>2017-11-09T09:43:22Z</time>
      </trkpt>
      <trkpt lat="44.74016" lon="5.86629">
        <ele>1581.99</ele>
        <time>2017-11-09T09:43:37Z</time>
      </trkpt>
      <trkpt lat="44.74016" lon="5.86626">
        <ele>1583.43</ele>
        <time>2017-11-09T09:43:49Z</time>
      </trkpt>
      <trkpt lat="44.74017" lon="5.86625">
        <ele>1583.43</ele>
        <time>2017-11-09T09:44:07Z</time>
      </trkpt>
      <trkpt lat="44.74014" lon="5.86624">
        <ele>1583.43</ele>
        <time>2017-11-09T09:44:28Z</time>
      </trkpt>
      <trkpt lat="44.74012" lon="5.86623">
        <ele>1584.39</ele>
        <time>2017-11-09T09:44:51Z</time>
      </trkpt>
      <trkpt lat="44.74011" lon="5.86619">
        <ele>1583.91</ele>
        <time>2017-11-09T09:45:12Z</time>
      </trkpt>
      <trkpt lat="44.74016" lon="5.86621">
        <ele>1584.39</ele>
        <time>2017-11-09T09:45:38Z</time>
      </trkpt>
      <trkpt lat="44.74009" lon="5.86614">
        <ele>1585.35</ele>
        <time>2017-11-09T09:45:52Z</time>
      </trkpt>
      <trkpt lat="44.74006" lon="5.86601">
        <ele>1586.31</ele>
        <time>2017-11-09T09:46:05Z</time>
      </trkpt>
      <trkpt lat="44.74007" lon="5.86587">
        <ele>1588.24</ele>
        <time>2017-11-09T09:46:21Z</time>
      </trkpt>
      <trkpt lat="44.74016" lon="5.86581">
        <ele>1590.16</ele>
        <time>2017-11-09T09:46:36Z</time>
      </trkpt>
      <trkpt lat="44.74024" lon="5.86574">
        <ele>1592.08</ele>
        <time>2017-11-09T09:46:51Z</time>
      </trkpt>
      <trkpt lat="44.74029" lon="5.86565">
        <ele>1594</ele>
        <time>2017-11-09T09:47:05Z</time>
      </trkpt>
      <trkpt lat="44.74034" lon="5.86555">
        <ele>1595.45</ele>
        <time>2017-11-09T09:47:19Z</time>
      </trkpt>
      <trkpt lat="44.74039" lon="5.86546">
        <ele>1597.85</ele>
        <time>2017-11-09T09:47:33Z</time>
      </trkpt>
      <trkpt lat="44.74044" lon="5.86536">
        <ele>1599.77</ele>
        <time>2017-11-09T09:47:48Z</time>
      </trkpt>
      <trkpt lat="44.74048" lon="5.86534">
        <ele>1600.73</ele>
        <time>2017-11-09T09:47:56Z</time>
      </trkpt>
      <trkpt lat="44.7405" lon="5.86518">
        <ele>1602.66</ele>
        <time>2017-11-09T09:48:11Z</time>
      </trkpt>
      <trkpt lat="44.74049" lon="5.86509">
        <ele>1604.58</ele>
        <time>2017-11-09T09:48:24Z</time>
      </trkpt>
      <trkpt lat="44.74045" lon="5.86496">
        <ele>1606.5</ele>
        <time>2017-11-09T09:48:40Z</time>
      </trkpt>
      <trkpt lat="44.74042" lon="5.86489">
        <ele>1608.42</ele>
        <time>2017-11-09T09:48:54Z</time>
      </trkpt>
      <trkpt lat="44.74037" lon="5.86481">
        <ele>1610.83</ele>
        <time>2017-11-09T09:49:08Z</time>
      </trkpt>
      <trkpt lat="44.74034" lon="5.86474">
        <ele>1614.19</ele>
        <time>2017-11-09T09:49:21Z</time>
      </trkpt>
      <trkpt lat="44.74033" lon="5.86473">
        <ele>1613.71</ele>
        <time>2017-11-09T09:49:25Z</time>
      </trkpt>
      <trkpt lat="44.74025" lon="5.86476">
        <ele>1615.15</ele>
        <time>2017-11-09T09:49:41Z</time>
      </trkpt>
      <trkpt lat="44.74016" lon="5.86475">
        <ele>1616.59</ele>
        <time>2017-11-09T09:49:57Z</time>
      </trkpt>
      <trkpt lat="44.74013" lon="5.86477">
        <ele>1617.07</ele>
        <time>2017-11-09T09:50:12Z</time>
      </trkpt>
      <trkpt lat="44.74003" lon="5.86478">
        <ele>1618.04</ele>
        <time>2017-11-09T09:50:27Z</time>
      </trkpt>
      <trkpt lat="44.74006" lon="5.8647">
        <ele>1618.04</ele>
        <time>2017-11-09T09:50:51Z</time>
      </trkpt>
      <trkpt lat="44.74008" lon="5.86464">
        <ele>1618.04</ele>
        <time>2017-11-09T09:51:13Z</time>
      </trkpt>
      <trkpt lat="44.74004" lon="5.86467">
        <ele>1618.04</ele>
        <time>2017-11-09T09:51:38Z</time>
      </trkpt>
      <trkpt lat="44.74007" lon="5.86456">
        <ele>1618.04</ele>
        <time>2017-11-09T09:52:06Z</time>
      </trkpt>
      <trkpt lat="44.73997" lon="5.86477">
        <ele>1618.04</ele>
        <time>2017-11-09T09:52:24Z</time>
      </trkpt>
      <trkpt lat="44.73988" lon="5.86489">
        <ele>1619</ele>
        <time>2017-11-09T09:52:38Z</time>
      </trkpt>
      <trkpt lat="44.7398" lon="5.86487">
        <ele>1620.44</ele>
        <time>2017-11-09T09:52:51Z</time>
      </trkpt>
      <trkpt lat="44.7398" lon="5.86487">
        <ele>1619.96</ele>
        <time>2017-11-09T09:53:06Z</time>
      </trkpt>
      <trkpt lat="44.73983" lon="5.86487">
        <ele>1619.96</ele>
        <time>2017-11-09T09:53:25Z</time>
      </trkpt>
      <trkpt lat="44.7398" lon="5.86484">
        <ele>1619.96</ele>
        <time>2017-11-09T09:53:45Z</time>
      </trkpt>
      <trkpt lat="44.73973" lon="5.86484">
        <ele>1619.48</ele>
        <time>2017-11-09T09:54:00Z</time>
      </trkpt>
      <trkpt lat="44.73971" lon="5.86483">
        <ele>1619</ele>
        <time>2017-11-09T09:54:18Z</time>
      </trkpt>
      <trkpt lat="44.7398" lon="5.86482">
        <ele>1619.96</ele>
        <time>2017-11-09T09:54:33Z</time>
      </trkpt>
      <trkpt lat="44.73983" lon="5.86485">
        <ele>1619.48</ele>
        <time>2017-11-09T09:54:50Z</time>
      </trkpt>
      <trkpt lat="44.73975" lon="5.86484">
        <ele>1619.96</ele>
        <time>2017-11-09T09:55:12Z</time>
      </trkpt>
      <trkpt lat="44.73976" lon="5.86481">
        <ele>1619.96</ele>
        <time>2017-11-09T09:55:27Z</time>
      </trkpt>
      <trkpt lat="44.73973" lon="5.86475">
        <ele>1621.4</ele>
        <time>2017-11-09T09:55:35Z</time>
      </trkpt>
      <trkpt lat="44.73969" lon="5.86469">
        <ele>1622.84</ele>
        <time>2017-11-09T09:55:46Z</time>
      </trkpt>
      <trkpt lat="44.73968" lon="5.86468">
        <ele>1622.84</ele>
        <time>2017-11-09T09:56:03Z</time>
      </trkpt>
      <trkpt lat="44.73963" lon="5.86462">
        <ele>1624.77</ele>
        <time>2017-11-09T09:56:15Z</time>
      </trkpt>
      <trkpt lat="44.73956" lon="5.86462">
        <ele>1625.25</ele>
        <time>2017-11-09T09:56:29Z</time>
      </trkpt>
      <trkpt lat="44.73948" lon="5.86458">
        <ele>1626.69</ele>
        <time>2017-11-09T09:56:42Z</time>
      </trkpt>
      <trkpt lat="44.73939" lon="5.86457">
        <ele>1628.61</ele>
        <time>2017-11-09T09:56:57Z</time>
      </trkpt>
      <trkpt lat="44.7393" lon="5.86454">
        <ele>1631.49</ele>
        <time>2017-11-09T09:57:14Z</time>
      </trkpt>
      <trkpt lat="44.73925" lon="5.86452">
        <ele>1634.86</ele>
        <time>2017-11-09T09:57:29Z</time>
      </trkpt>
      <trkpt lat="44.73921" lon="5.86451">
        <ele>1636.78</ele>
        <time>2017-11-09T09:57:43Z</time>
      </trkpt>
      <trkpt lat="44.73915" lon="5.8645">
        <ele>1637.26</ele>
        <time>2017-11-09T09:57:57Z</time>
      </trkpt>
      <trkpt lat="44.73907" lon="5.86452">
        <ele>1638.7</ele>
        <time>2017-11-09T09:58:10Z</time>
      </trkpt>
      <trkpt lat="44.739" lon="5.86454">
        <ele>1640.15</ele>
        <time>2017-11-09T09:58:22Z</time>
      </trkpt>
      <trkpt lat="44.73899" lon="5.86454">
        <ele>1640.15</ele>
        <time>2017-11-09T09:58:23Z</time>
      </trkpt>
      <trkpt lat="44.73891" lon="5.86457">
        <ele>1640.15</ele>
        <time>2017-11-09T09:58:35Z</time>
      </trkpt>
      <trkpt lat="44.73888" lon="5.86457">
        <ele>1640.63</ele>
        <time>2017-11-09T09:58:42Z</time>
      </trkpt>
      <trkpt lat="44.73884" lon="5.8646">
        <ele>1641.11</ele>
        <time>2017-11-09T09:58:54Z</time>
      </trkpt>
      <trkpt lat="44.73885" lon="5.86459">
        <ele>1641.11</ele>
        <time>2017-11-09T09:59:17Z</time>
      </trkpt>
      <trkpt lat="44.73882" lon="5.86461">
        <ele>1641.11</ele>
        <time>2017-11-09T09:59:49Z</time>
      </trkpt>
      <trkpt lat="44.73873" lon="5.86459">
        <ele>1641.59</ele>
        <time>2017-11-09T10:00:02Z</time>
      </trkpt>
      <trkpt lat="44.73871" lon="5.86459">
        <ele>1642.55</ele>
        <time>2017-11-09T10:00:13Z</time>
      </trkpt>
      <trkpt lat="44.73874" lon="5.86457">
        <ele>1642.55</ele>
        <time>2017-11-09T10:00:27Z</time>
      </trkpt>
      <trkpt lat="44.73874" lon="5.86457">
        <ele>1642.07</ele>
        <time>2017-11-09T10:00:42Z</time>
      </trkpt>
      <trkpt lat="44.73873" lon="5.86458">
        <ele>1642.07</ele>
        <time>2017-11-09T10:01:10Z</time>
      </trkpt>
      <trkpt lat="44.73862" lon="5.8646">
        <ele>1643.03</ele>
        <time>2017-11-09T10:01:27Z</time>
      </trkpt>
      <trkpt lat="44.73848" lon="5.8646">
        <ele>1644.47</ele>
        <time>2017-11-09T10:01:44Z</time>
      </trkpt>
      <trkpt lat="44.73835" lon="5.86458">
        <ele>1643.99</ele>
        <time>2017-11-09T10:02:01Z</time>
      </trkpt>
      <trkpt lat="44.7382" lon="5.8646">
        <ele>1642.07</ele>
        <time>2017-11-09T10:02:17Z</time>
      </trkpt>
      <trkpt lat="44.73808" lon="5.86461">
        <ele>1640.63</ele>
        <time>2017-11-09T10:02:33Z</time>
      </trkpt>
      <trkpt lat="44.73796" lon="5.86456">
        <ele>1639.67</ele>
        <time>2017-11-09T10:02:48Z</time>
      </trkpt>
      <trkpt lat="44.73787" lon="5.86458">
        <ele>1637.74</ele>
        <time>2017-11-09T10:03:04Z</time>
      </trkpt>
      <trkpt lat="44.73775" lon="5.86456">
        <ele>1636.3</ele>
        <time>2017-11-09T10:03:20Z</time>
      </trkpt>
      <trkpt lat="44.73764" lon="5.86459">
        <ele>1635.34</ele>
        <time>2017-11-09T10:03:37Z</time>
      </trkpt>
      <trkpt lat="44.73759" lon="5.86462">
        <ele>1633.9</ele>
        <time>2017-11-09T10:03:49Z</time>
      </trkpt>
      <trkpt lat="44.73751" lon="5.86467">
        <ele>1632.94</ele>
        <time>2017-11-09T10:04:05Z</time>
      </trkpt>
      <trkpt lat="44.73748" lon="5.86462">
        <ele>1632.94</ele>
        <time>2017-11-09T10:04:17Z</time>
      </trkpt>
      <trkpt lat="44.73751" lon="5.86461">
        <ele>1632.46</ele>
        <time>2017-11-09T10:04:40Z</time>
      </trkpt>
      <trkpt lat="44.73752" lon="5.86459">
        <ele>1632.46</ele>
        <time>2017-11-09T10:05:13Z</time>
      </trkpt>
      <trkpt lat="44.73746" lon="5.86462">
        <ele>1632.46</ele>
        <time>2017-11-09T10:05:42Z</time>
      </trkpt>
      <trkpt lat="44.73751" lon="5.86457">
        <ele>1631.98</ele>
        <time>2017-11-09T10:06:13Z</time>
      </trkpt>
      <trkpt lat="44.73743" lon="5.86461">
        <ele>1631.98</ele>
        <time>2017-11-09T10:06:42Z</time>
      </trkpt>
      <trkpt lat="44.7374" lon="5.86461">
        <ele>1631.98</ele>
        <time>2017-11-09T10:07:17Z</time>
      </trkpt>
      <trkpt lat="44.73741" lon="5.86462">
        <ele>1631.98</ele>
        <time>2017-11-09T10:07:42Z</time>
      </trkpt>
      <trkpt lat="44.73743" lon="5.86464">
        <ele>1631.98</ele>
        <time>2017-11-09T10:07:57Z</time>
      </trkpt>
      <trkpt lat="44.73738" lon="5.86465">
        <ele>1631.01</ele>
        <time>2017-11-09T10:08:10Z</time>
      </trkpt>
      <trkpt lat="44.73733" lon="5.86469">
        <ele>1630.05</ele>
        <time>2017-11-09T10:08:24Z</time>
      </trkpt>
      <trkpt lat="44.73725" lon="5.86474">
        <ele>1629.09</ele>
        <time>2017-11-09T10:08:39Z</time>
      </trkpt>
      <trkpt lat="44.73711" lon="5.86473">
        <ele>1630.53</ele>
        <time>2017-11-09T10:08:56Z</time>
      </trkpt>
      <trkpt lat="44.73701" lon="5.8647">
        <ele>1630.53</ele>
        <time>2017-11-09T10:09:10Z</time>
      </trkpt>
      <trkpt lat="44.73697" lon="5.86473">
        <ele>1629.57</ele>
        <time>2017-11-09T10:09:17Z</time>
      </trkpt>
      <trkpt lat="44.73685" lon="5.86479">
        <ele>1626.69</ele>
        <time>2017-11-09T10:09:34Z</time>
      </trkpt>
      <trkpt lat="44.73676" lon="5.86482">
        <ele>1625.25</ele>
        <time>2017-11-09T10:09:48Z</time>
      </trkpt>
      <trkpt lat="44.73671" lon="5.86469">
        <ele>1624.77</ele>
        <time>2017-11-09T10:10:00Z</time>
      </trkpt>
      <trkpt lat="44.7366" lon="5.86462">
        <ele>1623.8</ele>
        <time>2017-11-09T10:10:14Z</time>
      </trkpt>
      <trkpt lat="44.73648" lon="5.86455">
        <ele>1624.77</ele>
        <time>2017-11-09T10:10:31Z</time>
      </trkpt>
      <trkpt lat="44.73637" lon="5.86459">
        <ele>1624.28</ele>
        <time>2017-11-09T10:10:47Z</time>
      </trkpt>
      <trkpt lat="44.73627" lon="5.86461">
        <ele>1623.32</ele>
        <time>2017-11-09T10:11:01Z</time>
      </trkpt>
      <trkpt lat="44.73625" lon="5.86455">
        <ele>1622.84</ele>
        <time>2017-11-09T10:11:15Z</time>
      </trkpt>
      <trkpt lat="44.73621" lon="5.86458">
        <ele>1622.84</ele>
        <time>2017-11-09T10:11:40Z</time>
      </trkpt>
      <trkpt lat="44.73622" lon="5.86455">
        <ele>1622.84</ele>
        <time>2017-11-09T10:12:03Z</time>
      </trkpt>
      <trkpt lat="44.73623" lon="5.86455">
        <ele>1622.84</ele>
        <time>2017-11-09T10:12:18Z</time>
      </trkpt>
      <trkpt lat="44.73622" lon="5.86456">
        <ele>1622.84</ele>
        <time>2017-11-09T10:12:46Z</time>
      </trkpt>
      <trkpt lat="44.7362" lon="5.86456">
        <ele>1622.36</ele>
        <time>2017-11-09T10:13:18Z</time>
      </trkpt>
      <trkpt lat="44.73624" lon="5.86452">
        <ele>1622.84</ele>
        <time>2017-11-09T10:13:44Z</time>
      </trkpt>
      <trkpt lat="44.7362" lon="5.86453">
        <ele>1621.88</ele>
        <time>2017-11-09T10:14:16Z</time>
      </trkpt>
      <trkpt lat="44.73624" lon="5.86454">
        <ele>1622.36</ele>
        <time>2017-11-09T10:14:38Z</time>
      </trkpt>
      <trkpt lat="44.73622" lon="5.86455">
        <ele>1622.36</ele>
        <time>2017-11-09T10:15:11Z</time>
      </trkpt>
      <trkpt lat="44.73621" lon="5.86456">
        <ele>1622.84</ele>
        <time>2017-11-09T10:15:42Z</time>
      </trkpt>
      <trkpt lat="44.73622" lon="5.86457">
        <ele>1622.36</ele>
        <time>2017-11-09T10:16:03Z</time>
      </trkpt>
      <trkpt lat="44.73626" lon="5.86454">
        <ele>1622.36</ele>
        <time>2017-11-09T10:16:27Z</time>
      </trkpt>
      <trkpt lat="44.73615" lon="5.86451">
        <ele>1621.88</ele>
        <time>2017-11-09T10:16:40Z</time>
      </trkpt>
      <trkpt lat="44.73606" lon="5.86445">
        <ele>1620.44</ele>
        <time>2017-11-09T10:16:55Z</time>
      </trkpt>
      <trkpt lat="44.73599" lon="5.86435">
        <ele>1618.52</ele>
        <time>2017-11-09T10:17:09Z</time>
      </trkpt>
      <trkpt lat="44.73591" lon="5.8643">
        <ele>1616.11</ele>
        <time>2017-11-09T10:17:25Z</time>
      </trkpt>
      <trkpt lat="44.73582" lon="5.86426">
        <ele>1614.67</ele>
        <time>2017-11-09T10:17:39Z</time>
      </trkpt>
      <trkpt lat="44.7357" lon="5.8642">
        <ele>1614.19</ele>
        <time>2017-11-09T10:17:55Z</time>
      </trkpt>
      <trkpt lat="44.73561" lon="5.86416">
        <ele>1613.71</ele>
        <time>2017-11-09T10:18:09Z</time>
      </trkpt>
      <trkpt lat="44.7355" lon="5.8641">
        <ele>1612.75</ele>
        <time>2017-11-09T10:18:26Z</time>
      </trkpt>
      <trkpt lat="44.73542" lon="5.86402">
        <ele>1610.83</ele>
        <time>2017-11-09T10:18:40Z</time>
      </trkpt>
      <trkpt lat="44.73533" lon="5.86396">
        <ele>1608.9</ele>
        <time>2017-11-09T10:18:54Z</time>
      </trkpt>
      <trkpt lat="44.73522" lon="5.86399">
        <ele>1606.5</ele>
        <time>2017-11-09T10:19:12Z</time>
      </trkpt>
      <trkpt lat="44.73508" lon="5.86401">
        <ele>1605.54</ele>
        <time>2017-11-09T10:19:28Z</time>
      </trkpt>
      <trkpt lat="44.73502" lon="5.86405">
        <ele>1604.1</ele>
        <time>2017-11-09T10:19:45Z</time>
      </trkpt>
      <trkpt lat="44.73493" lon="5.86405">
        <ele>1603.14</ele>
        <time>2017-11-09T10:19:57Z</time>
      </trkpt>
      <trkpt lat="44.73482" lon="5.86401">
        <ele>1601.21</ele>
        <time>2017-11-09T10:20:12Z</time>
      </trkpt>
      <trkpt lat="44.73472" lon="5.86397">
        <ele>1598.81</ele>
        <time>2017-11-09T10:20:26Z</time>
      </trkpt>
      <trkpt lat="44.73458" lon="5.86397">
        <ele>1597.85</ele>
        <time>2017-11-09T10:20:43Z</time>
      </trkpt>
      <trkpt lat="44.73448" lon="5.86396">
        <ele>1598.33</ele>
        <time>2017-11-09T10:20:59Z</time>
      </trkpt>
      <trkpt lat="44.73435" lon="5.864">
        <ele>1598.81</ele>
        <time>2017-11-09T10:21:16Z</time>
      </trkpt>
      <trkpt lat="44.73426" lon="5.86401">
        <ele>1598.81</ele>
        <time>2017-11-09T10:21:28Z</time>
      </trkpt>
      <trkpt lat="44.73413" lon="5.86408">
        <ele>1599.29</ele>
        <time>2017-11-09T10:21:44Z</time>
      </trkpt>
      <trkpt lat="44.73402" lon="5.86408">
        <ele>1598.33</ele>
        <time>2017-11-09T10:21:58Z</time>
      </trkpt>
      <trkpt lat="44.73389" lon="5.86408">
        <ele>1597.85</ele>
        <time>2017-11-09T10:22:12Z</time>
      </trkpt>
      <trkpt lat="44.73381" lon="5.86412">
        <ele>1597.37</ele>
        <time>2017-11-09T10:22:22Z</time>
      </trkpt>
      <trkpt lat="44.73379" lon="5.86416">
        <ele>1597.37</ele>
        <time>2017-11-09T10:22:26Z</time>
      </trkpt>
      <trkpt lat="44.73367" lon="5.86423">
        <ele>1596.41</ele>
        <time>2017-11-09T10:22:43Z</time>
      </trkpt>
      <trkpt lat="44.73363" lon="5.86422">
        <ele>1596.89</ele>
        <time>2017-11-09T10:22:47Z</time>
      </trkpt>
      <trkpt lat="44.73353" lon="5.86408">
        <ele>1597.37</ele>
        <time>2017-11-09T10:23:03Z</time>
      </trkpt>
      <trkpt lat="44.73342" lon="5.86395">
        <ele>1598.81</ele>
        <time>2017-11-09T10:23:18Z</time>
      </trkpt>
      <trkpt lat="44.7334" lon="5.86389">
        <ele>1600.73</ele>
        <time>2017-11-09T10:23:26Z</time>
      </trkpt>
      <trkpt lat="44.73332" lon="5.86389">
        <ele>1599.77</ele>
        <time>2017-11-09T10:23:36Z</time>
      </trkpt>
      <trkpt lat="44.73319" lon="5.86396">
        <ele>1598.33</ele>
        <time>2017-11-09T10:23:52Z</time>
      </trkpt>
      <trkpt lat="44.7331" lon="5.86408">
        <ele>1597.37</ele>
        <time>2017-11-09T10:24:06Z</time>
      </trkpt>
      <trkpt lat="44.73303" lon="5.86421">
        <ele>1595.45</ele>
        <time>2017-11-09T10:24:19Z</time>
      </trkpt>
      <trkpt lat="44.733" lon="5.86423">
        <ele>1594.96</ele>
        <time>2017-11-09T10:24:23Z</time>
      </trkpt>
      <trkpt lat="44.73292" lon="5.86431">
        <ele>1592.08</ele>
        <time>2017-11-09T10:24:37Z</time>
      </trkpt>
      <trkpt lat="44.73285" lon="5.86435">
        <ele>1590.64</ele>
        <time>2017-11-09T10:24:46Z</time>
      </trkpt>
      <trkpt lat="44.73269" lon="5.86433">
        <ele>1589.68</ele>
        <time>2017-11-09T10:25:04Z</time>
      </trkpt>
      <trkpt lat="44.7326" lon="5.86435">
        <ele>1588.72</ele>
        <time>2017-11-09T10:25:18Z</time>
      </trkpt>
      <trkpt lat="44.73243" lon="5.86429">
        <ele>1587.75</ele>
        <time>2017-11-09T10:25:39Z</time>
      </trkpt>
      <trkpt lat="44.7323" lon="5.86428">
        <ele>1587.27</ele>
        <time>2017-11-09T10:25:53Z</time>
      </trkpt>
      <trkpt lat="44.73226" lon="5.86429">
        <ele>1587.27</ele>
        <time>2017-11-09T10:25:58Z</time>
      </trkpt>
      <trkpt lat="44.73222" lon="5.86429">
        <ele>1587.27</ele>
        <time>2017-11-09T10:26:02Z</time>
      </trkpt>
      <trkpt lat="44.73212" lon="5.86433">
        <ele>1587.27</ele>
        <time>2017-11-09T10:26:12Z</time>
      </trkpt>
      <trkpt lat="44.73205" lon="5.86439">
        <ele>1587.75</ele>
        <time>2017-11-09T10:26:22Z</time>
      </trkpt>
      <trkpt lat="44.73196" lon="5.8644">
        <ele>1588.24</ele>
        <time>2017-11-09T10:26:34Z</time>
      </trkpt>
      <trkpt lat="44.73185" lon="5.86437">
        <ele>1587.75</ele>
        <time>2017-11-09T10:26:46Z</time>
      </trkpt>
      <trkpt lat="44.73183" lon="5.86434">
        <ele>1587.27</ele>
        <time>2017-11-09T10:26:49Z</time>
      </trkpt>
      <trkpt lat="44.73179" lon="5.86432">
        <ele>1587.27</ele>
        <time>2017-11-09T10:26:53Z</time>
      </trkpt>
      <trkpt lat="44.73171" lon="5.86431">
        <ele>1586.31</ele>
        <time>2017-11-09T10:27:02Z</time>
      </trkpt>
      <trkpt lat="44.73159" lon="5.86431">
        <ele>1585.83</ele>
        <time>2017-11-09T10:27:16Z</time>
      </trkpt>
      <trkpt lat="44.73153" lon="5.86433">
        <ele>1585.83</ele>
        <time>2017-11-09T10:27:28Z</time>
      </trkpt>
      <trkpt lat="44.73148" lon="5.86437">
        <ele>1582.95</ele>
        <time>2017-11-09T10:27:40Z</time>
      </trkpt>
      <trkpt lat="44.73139" lon="5.86442">
        <ele>1581.51</ele>
        <time>2017-11-09T10:27:53Z</time>
      </trkpt>
      <trkpt lat="44.73136" lon="5.86443">
        <ele>1581.03</ele>
        <time>2017-11-09T10:28:00Z</time>
      </trkpt>
      <trkpt lat="44.73129" lon="5.86447">
        <ele>1579.58</ele>
        <time>2017-11-09T10:28:12Z</time>
      </trkpt>
      <trkpt lat="44.73124" lon="5.86448">
        <ele>1578.62</ele>
        <time>2017-11-09T10:28:25Z</time>
      </trkpt>
      <trkpt lat="44.73122" lon="5.86451">
        <ele>1577.18</ele>
        <time>2017-11-09T10:28:37Z</time>
      </trkpt>
      <trkpt lat="44.73119" lon="5.86459">
        <ele>1575.74</ele>
        <time>2017-11-09T10:28:50Z</time>
      </trkpt>
      <trkpt lat="44.73116" lon="5.8646">
        <ele>1575.74</ele>
        <time>2017-11-09T10:29:16Z</time>
      </trkpt>
      <trkpt lat="44.73116" lon="5.86461">
        <ele>1575.74</ele>
        <time>2017-11-09T10:29:32Z</time>
      </trkpt>
      <trkpt lat="44.73116" lon="5.86461">
        <ele>1575.74</ele>
        <time>2017-11-09T10:29:50Z</time>
      </trkpt>
      <trkpt lat="44.73114" lon="5.86461">
        <ele>1576.22</ele>
        <time>2017-11-09T10:30:22Z</time>
      </trkpt>
      <trkpt lat="44.73115" lon="5.86454">
        <ele>1576.22</ele>
        <time>2017-11-09T10:30:55Z</time>
      </trkpt>
      <trkpt lat="44.73115" lon="5.86461">
        <ele>1576.22</ele>
        <time>2017-11-09T10:31:24Z</time>
      </trkpt>
      <trkpt lat="44.73109" lon="5.86459">
        <ele>1578.14</ele>
        <time>2017-11-09T10:31:40Z</time>
      </trkpt>
      <trkpt lat="44.73105" lon="5.86457">
        <ele>1578.14</ele>
        <time>2017-11-09T10:32:03Z</time>
      </trkpt>
      <trkpt lat="44.73103" lon="5.86454">
        <ele>1578.14</ele>
        <time>2017-11-09T10:32:42Z</time>
      </trkpt>
      <trkpt lat="44.73108" lon="5.86462">
        <ele>1578.14</ele>
        <time>2017-11-09T10:33:15Z</time>
      </trkpt>
      <trkpt lat="44.73117" lon="5.86462">
        <ele>1576.7</ele>
        <time>2017-11-09T10:33:31Z</time>
      </trkpt>
      <trkpt lat="44.73118" lon="5.8646">
        <ele>1576.7</ele>
        <time>2017-11-09T10:33:52Z</time>
      </trkpt>
      <trkpt lat="44.73118" lon="5.86456">
        <ele>1576.7</ele>
        <time>2017-11-09T10:34:16Z</time>
      </trkpt>
      <trkpt lat="44.73118" lon="5.86457">
        <ele>1576.7</ele>
        <time>2017-11-09T10:34:34Z</time>
      </trkpt>
      <trkpt lat="44.73122" lon="5.86459">
        <ele>1576.7</ele>
        <time>2017-11-09T10:35:01Z</time>
      </trkpt>
      <trkpt lat="44.73115" lon="5.86464">
        <ele>1576.7</ele>
        <time>2017-11-09T10:35:25Z</time>
      </trkpt>
      <trkpt lat="44.73114" lon="5.86465">
        <ele>1576.7</ele>
        <time>2017-11-09T10:35:38Z</time>
      </trkpt>
      <trkpt lat="44.73111" lon="5.86472">
        <ele>1575.74</ele>
        <time>2017-11-09T10:35:50Z</time>
      </trkpt>
      <trkpt lat="44.73102" lon="5.86474">
        <ele>1575.74</ele>
        <time>2017-11-09T10:36:03Z</time>
      </trkpt>
      <trkpt lat="44.73096" lon="5.86471">
        <ele>1576.7</ele>
        <time>2017-11-09T10:36:13Z</time>
      </trkpt>
      <trkpt lat="44.73093" lon="5.86471">
        <ele>1576.7</ele>
        <time>2017-11-09T10:36:16Z</time>
      </trkpt>
      <trkpt lat="44.73088" lon="5.86469">
        <ele>1577.18</ele>
        <time>2017-11-09T10:36:22Z</time>
      </trkpt>
      <trkpt lat="44.7308" lon="5.86465">
        <ele>1577.18</ele>
        <time>2017-11-09T10:36:34Z</time>
      </trkpt>
      <trkpt lat="44.73071" lon="5.86452">
        <ele>1577.66</ele>
        <time>2017-11-09T10:36:49Z</time>
      </trkpt>
      <trkpt lat="44.73064" lon="5.86443">
        <ele>1577.66</ele>
        <time>2017-11-09T10:37:01Z</time>
      </trkpt>
      <trkpt lat="44.73059" lon="5.86442">
        <ele>1578.62</ele>
        <time>2017-11-09T10:37:10Z</time>
      </trkpt>
      <trkpt lat="44.73052" lon="5.86432">
        <ele>1580.54</ele>
        <time>2017-11-09T10:37:23Z</time>
      </trkpt>
      <trkpt lat="44.73048" lon="5.86427">
        <ele>1581.99</ele>
        <time>2017-11-09T10:37:31Z</time>
      </trkpt>
      <trkpt lat="44.73039" lon="5.86422">
        <ele>1583.43</ele>
        <time>2017-11-09T10:37:45Z</time>
      </trkpt>
      <trkpt lat="44.73034" lon="5.86412">
        <ele>1585.35</ele>
        <time>2017-11-09T10:37:57Z</time>
      </trkpt>
      <trkpt lat="44.73029" lon="5.86407">
        <ele>1587.75</ele>
        <time>2017-11-09T10:38:07Z</time>
      </trkpt>
      <trkpt lat="44.73018" lon="5.86407">
        <ele>1588.24</ele>
        <time>2017-11-09T10:38:20Z</time>
      </trkpt>
      <trkpt lat="44.73006" lon="5.86404">
        <ele>1587.27</ele>
        <time>2017-11-09T10:38:34Z</time>
      </trkpt>
      <trkpt lat="44.72998" lon="5.86405">
        <ele>1587.27</ele>
        <time>2017-11-09T10:38:43Z</time>
      </trkpt>
      <trkpt lat="44.72987" lon="5.864">
        <ele>1587.27</ele>
        <time>2017-11-09T10:38:56Z</time>
      </trkpt>
      <trkpt lat="44.72984" lon="5.86399">
        <ele>1587.75</ele>
        <time>2017-11-09T10:39:00Z</time>
      </trkpt>
      <trkpt lat="44.72981" lon="5.86399">
        <ele>1588.72</ele>
        <time>2017-11-09T10:39:03Z</time>
      </trkpt>
      <trkpt lat="44.72979" lon="5.86398">
        <ele>1588.72</ele>
        <time>2017-11-09T10:39:06Z</time>
      </trkpt>
      <trkpt lat="44.72977" lon="5.86398">
        <ele>1589.68</ele>
        <time>2017-11-09T10:39:09Z</time>
      </trkpt>
      <trkpt lat="44.7297" lon="5.86395">
        <ele>1590.64</ele>
        <time>2017-11-09T10:39:18Z</time>
      </trkpt>
      <trkpt lat="44.72967" lon="5.86396">
        <ele>1590.16</ele>
        <time>2017-11-09T10:39:21Z</time>
      </trkpt>
      <trkpt lat="44.72957" lon="5.86389">
        <ele>1588.72</ele>
        <time>2017-11-09T10:39:35Z</time>
      </trkpt>
      <trkpt lat="44.72956" lon="5.86389">
        <ele>1588.72</ele>
        <time>2017-11-09T10:39:36Z</time>
      </trkpt>
      <trkpt lat="44.72955" lon="5.86389">
        <ele>1588.24</ele>
        <time>2017-11-09T10:39:38Z</time>
      </trkpt>
      <trkpt lat="44.72948" lon="5.86384">
        <ele>1588.24</ele>
        <time>2017-11-09T10:39:45Z</time>
      </trkpt>
      <trkpt lat="44.72937" lon="5.86378">
        <ele>1588.72</ele>
        <time>2017-11-09T10:40:00Z</time>
      </trkpt>
      <trkpt lat="44.72929" lon="5.86387">
        <ele>1588.72</ele>
        <time>2017-11-09T10:40:12Z</time>
      </trkpt>
      <trkpt lat="44.72923" lon="5.8638">
        <ele>1588.24</ele>
        <time>2017-11-09T10:40:23Z</time>
      </trkpt>
      <trkpt lat="44.72927" lon="5.86379">
        <ele>1588.24</ele>
        <time>2017-11-09T10:40:35Z</time>
      </trkpt>
      <trkpt lat="44.72927" lon="5.8638">
        <ele>1588.24</ele>
        <time>2017-11-09T10:40:49Z</time>
      </trkpt>
      <trkpt lat="44.72926" lon="5.86383">
        <ele>1588.24</ele>
        <time>2017-11-09T10:41:06Z</time>
      </trkpt>
      <trkpt lat="44.72926" lon="5.86379">
        <ele>1588.24</ele>
        <time>2017-11-09T10:41:22Z</time>
      </trkpt>
      <trkpt lat="44.72924" lon="5.86378">
        <ele>1588.24</ele>
        <time>2017-11-09T10:41:37Z</time>
      </trkpt>
      <trkpt lat="44.72924" lon="5.86374">
        <ele>1588.24</ele>
        <time>2017-11-09T10:41:50Z</time>
      </trkpt>
      <trkpt lat="44.72925" lon="5.86376">
        <ele>1588.72</ele>
        <time>2017-11-09T10:42:01Z</time>
      </trkpt>
      <trkpt lat="44.72927" lon="5.86373">
        <ele>1588.24</ele>
        <time>2017-11-09T10:42:27Z</time>
      </trkpt>
      <trkpt lat="44.72922" lon="5.86374">
        <ele>1588.72</ele>
        <time>2017-11-09T10:42:47Z</time>
      </trkpt>
      <trkpt lat="44.72926" lon="5.86375">
        <ele>1588.24</ele>
        <time>2017-11-09T10:43:14Z</time>
      </trkpt>
      <trkpt lat="44.72925" lon="5.86376">
        <ele>1588.24</ele>
        <time>2017-11-09T10:43:32Z</time>
      </trkpt>
      <trkpt lat="44.72923" lon="5.86373">
        <ele>1588.24</ele>
        <time>2017-11-09T10:43:46Z</time>
      </trkpt>
      <trkpt lat="44.72923" lon="5.86374">
        <ele>1588.24</ele>
        <time>2017-11-09T10:43:58Z</time>
      </trkpt>
      <trkpt lat="44.72925" lon="5.86376">
        <ele>1588.24</ele>
        <time>2017-11-09T10:44:09Z</time>
      </trkpt>
      <trkpt lat="44.72925" lon="5.86374">
        <ele>1587.75</ele>
        <time>2017-11-09T10:44:24Z</time>
      </trkpt>
      <trkpt lat="44.72924" lon="5.86374">
        <ele>1587.75</ele>
        <time>2017-11-09T10:44:46Z</time>
      </trkpt>
      <trkpt lat="44.72923" lon="5.86374">
        <ele>1588.24</ele>
        <time>2017-11-09T10:45:10Z</time>
      </trkpt>
      <trkpt lat="44.72923" lon="5.86369">
        <ele>1588.24</ele>
        <time>2017-11-09T10:45:55Z</time>
      </trkpt>
      <trkpt lat="44.72923" lon="5.86368">
        <ele>1588.24</ele>
        <time>2017-11-09T10:46:18Z</time>
      </trkpt>
      <trkpt lat="44.72923" lon="5.86368">
        <ele>1588.24</ele>
        <time>2017-11-09T10:46:51Z</time>
      </trkpt>
      <trkpt lat="44.72922" lon="5.86369">
        <ele>1588.24</ele>
        <time>2017-11-09T10:47:25Z</time>
      </trkpt>
      <trkpt lat="44.72922" lon="5.86368">
        <ele>1588.24</ele>
        <time>2017-11-09T10:48:01Z</time>
      </trkpt>
      <trkpt lat="44.72924" lon="5.86378">
        <ele>1588.24</ele>
        <time>2017-11-09T10:48:31Z</time>
      </trkpt>
      <trkpt lat="44.72922" lon="5.8637">
        <ele>1588.24</ele>
        <time>2017-11-09T10:49:01Z</time>
      </trkpt>
      <trkpt lat="44.72923" lon="5.86377">
        <ele>1588.24</ele>
        <time>2017-11-09T10:49:28Z</time>
      </trkpt>
      <trkpt lat="44.72923" lon="5.86373">
        <ele>1588.24</ele>
        <time>2017-11-09T10:49:56Z</time>
      </trkpt>
      <trkpt lat="44.72926" lon="5.86376">
        <ele>1588.24</ele>
        <time>2017-11-09T10:50:24Z</time>
      </trkpt>
      <trkpt lat="44.72925" lon="5.86377">
        <ele>1588.24</ele>
        <time>2017-11-09T10:50:49Z</time>
      </trkpt>
      <trkpt lat="44.72924" lon="5.86369">
        <ele>1588.24</ele>
        <time>2017-11-09T10:51:27Z</time>
      </trkpt>
      <trkpt lat="44.72922" lon="5.86368">
        <ele>1588.24</ele>
        <time>2017-11-09T10:52:06Z</time>
      </trkpt>
      <trkpt lat="44.72923" lon="5.86368">
        <ele>1588.72</ele>
        <time>2017-11-09T10:52:52Z</time>
      </trkpt>
      <trkpt lat="44.72923" lon="5.8637">
        <ele>1588.72</ele>
        <time>2017-11-09T10:53:27Z</time>
      </trkpt>
      <trkpt lat="44.72924" lon="5.86369">
        <ele>1589.2</ele>
        <time>2017-11-09T10:54:02Z</time>
      </trkpt>
      <trkpt lat="44.72923" lon="5.86367">
        <ele>1589.2</ele>
        <time>2017-11-09T10:54:40Z</time>
      </trkpt>
      <trkpt lat="44.72921" lon="5.86367">
        <ele>1589.2</ele>
        <time>2017-11-09T10:55:14Z</time>
      </trkpt>
      <trkpt lat="44.72924" lon="5.86375">
        <ele>1589.2</ele>
        <time>2017-11-09T10:55:58Z</time>
      </trkpt>
      <trkpt lat="44.72926" lon="5.86377">
        <ele>1589.2</ele>
        <time>2017-11-09T10:56:35Z</time>
      </trkpt>
      <trkpt lat="44.72923" lon="5.86373">
        <ele>1589.2</ele>
        <time>2017-11-09T10:57:14Z</time>
      </trkpt>
      <trkpt lat="44.72925" lon="5.86374">
        <ele>1589.2</ele>
        <time>2017-11-09T10:57:51Z</time>
      </trkpt>
      <trkpt lat="44.72925" lon="5.86377">
        <ele>1589.2</ele>
        <time>2017-11-09T10:58:29Z</time>
      </trkpt>
      <trkpt lat="44.72927" lon="5.86377">
        <ele>1589.2</ele>
        <time>2017-11-09T10:59:19Z</time>
      </trkpt>
      <trkpt lat="44.72926" lon="5.86376">
        <ele>1590.64</ele>
        <time>2017-11-09T11:00:06Z</time>
      </trkpt>
      <trkpt lat="44.72925" lon="5.86377">
        <ele>1589.68</ele>
        <time>2017-11-09T11:00:45Z</time>
      </trkpt>
      <trkpt lat="44.72925" lon="5.86374">
        <ele>1590.16</ele>
        <time>2017-11-09T11:01:29Z</time>
      </trkpt>
      <trkpt lat="44.72924" lon="5.86374">
        <ele>1590.16</ele>
        <time>2017-11-09T11:02:22Z</time>
      </trkpt>
      <trkpt lat="44.72924" lon="5.86374">
        <ele>1590.64</ele>
        <time>2017-11-09T11:02:54Z</time>
      </trkpt>
      <trkpt lat="44.72925" lon="5.86375">
        <ele>1590.64</ele>
        <time>2017-11-09T11:03:29Z</time>
      </trkpt>
      <trkpt lat="44.72924" lon="5.86372">
        <ele>1590.64</ele>
        <time>2017-11-09T11:04:10Z</time>
      </trkpt>
      <trkpt lat="44.72924" lon="5.86372">
        <ele>1591.12</ele>
        <time>2017-11-09T11:04:59Z</time>
      </trkpt>
      <trkpt lat="44.72925" lon="5.86375">
        <ele>1590.64</ele>
        <time>2017-11-09T11:05:37Z</time>
      </trkpt>
      <trkpt lat="44.72925" lon="5.86375">
        <ele>1591.12</ele>
        <time>2017-11-09T11:06:12Z</time>
      </trkpt>
      <trkpt lat="44.72926" lon="5.86375">
        <ele>1591.12</ele>
        <time>2017-11-09T11:06:48Z</time>
      </trkpt>
      <trkpt lat="44.72926" lon="5.86375">
        <ele>1590.64</ele>
        <time>2017-11-09T11:07:28Z</time>
      </trkpt>
      <trkpt lat="44.72927" lon="5.86375">
        <ele>1591.12</ele>
        <time>2017-11-09T11:07:51Z</time>
      </trkpt>
      <trkpt lat="44.72927" lon="5.86375">
        <ele>1591.12</ele>
        <time>2017-11-09T11:08:28Z</time>
      </trkpt>
      <trkpt lat="44.72927" lon="5.86375">
        <ele>1591.12</ele>
        <time>2017-11-09T11:08:56Z</time>
      </trkpt>
      <trkpt lat="44.72925" lon="5.86373">
        <ele>1591.12</ele>
        <time>2017-11-09T11:09:20Z</time>
      </trkpt>
      <trkpt lat="44.72925" lon="5.86374">
        <ele>1591.12</ele>
        <time>2017-11-09T11:09:48Z</time>
      </trkpt>
      <trkpt lat="44.72926" lon="5.86371">
        <ele>1591.6</ele>
        <time>2017-11-09T11:10:24Z</time>
      </trkpt>
      <trkpt lat="44.72924" lon="5.86371">
        <ele>1591.6</ele>
        <time>2017-11-09T11:10:54Z</time>
      </trkpt>
      <trkpt lat="44.72925" lon="5.86372">
        <ele>1591.6</ele>
        <time>2017-11-09T11:11:39Z</time>
      </trkpt>
      <trkpt lat="44.72927" lon="5.86375">
        <ele>1591.6</ele>
        <time>2017-11-09T11:12:03Z</time>
      </trkpt>
      <trkpt lat="44.72927" lon="5.86374">
        <ele>1592.08</ele>
        <time>2017-11-09T11:12:37Z</time>
      </trkpt>
      <trkpt lat="44.72926" lon="5.86373">
        <ele>1592.08</ele>
        <time>2017-11-09T11:13:07Z</time>
      </trkpt>
      <trkpt lat="44.72925" lon="5.86372">
        <ele>1592.08</ele>
        <time>2017-11-09T11:13:32Z</time>
      </trkpt>
      <trkpt lat="44.72924" lon="5.86371">
        <ele>1592.08</ele>
        <time>2017-11-09T11:13:56Z</time>
      </trkpt>
      <trkpt lat="44.72925" lon="5.86373">
        <ele>1592.08</ele>
        <time>2017-11-09T11:14:19Z</time>
      </trkpt>
      <trkpt lat="44.72925" lon="5.86373">
        <ele>1592.08</ele>
        <time>2017-11-09T11:14:47Z</time>
      </trkpt>
      <trkpt lat="44.72926" lon="5.86374">
        <ele>1592.56</ele>
        <time>2017-11-09T11:15:08Z</time>
      </trkpt>
      <trkpt lat="44.72923" lon="5.86375">
        <ele>1592.56</ele>
        <time>2017-11-09T11:15:22Z</time>
      </trkpt>
      <trkpt lat="44.72924" lon="5.86374">
        <ele>1592.08</ele>
        <time>2017-11-09T11:15:37Z</time>
      </trkpt>
      <trkpt lat="44.72924" lon="5.86369">
        <ele>1592.08</ele>
        <time>2017-11-09T11:15:59Z</time>
      </trkpt>
      <trkpt lat="44.72923" lon="5.86367">
        <ele>1592.56</ele>
        <time>2017-11-09T11:16:30Z</time>
      </trkpt>
      <trkpt lat="44.72924" lon="5.86367">
        <ele>1592.56</ele>
        <time>2017-11-09T11:16:54Z</time>
      </trkpt>
      <trkpt lat="44.72923" lon="5.86367">
        <ele>1592.56</ele>
        <time>2017-11-09T11:17:25Z</time>
      </trkpt>
      <trkpt lat="44.72924" lon="5.86367">
        <ele>1593.04</ele>
        <time>2017-11-09T11:17:56Z</time>
      </trkpt>
      <trkpt lat="44.72924" lon="5.86366">
        <ele>1593.04</ele>
        <time>2017-11-09T11:18:21Z</time>
      </trkpt>
      <trkpt lat="44.72925" lon="5.86375">
        <ele>1593.04</ele>
        <time>2017-11-09T11:18:52Z</time>
      </trkpt>
      <trkpt lat="44.72925" lon="5.86373">
        <ele>1593.04</ele>
        <time>2017-11-09T11:19:27Z</time>
      </trkpt>
      <trkpt lat="44.72925" lon="5.86372">
        <ele>1593.52</ele>
        <time>2017-11-09T11:19:28Z</time>
      </trkpt>
      <trkpt lat="44.72924" lon="5.86378">
        <ele>1593.52</ele>
        <time>2017-11-09T11:19:43Z</time>
      </trkpt>
      <trkpt lat="44.72923" lon="5.86375">
        <ele>1593.04</ele>
        <time>2017-11-09T11:20:11Z</time>
      </trkpt>
      <trkpt lat="44.72923" lon="5.86377">
        <ele>1593.04</ele>
        <time>2017-11-09T11:20:38Z</time>
      </trkpt>
      <trkpt lat="44.72924" lon="5.86376">
        <ele>1593.04</ele>
        <time>2017-11-09T11:21:11Z</time>
      </trkpt>
      <trkpt lat="44.72922" lon="5.86374">
        <ele>1593.04</ele>
        <time>2017-11-09T11:21:48Z</time>
      </trkpt>
      <trkpt lat="44.72921" lon="5.86374">
        <ele>1593.04</ele>
        <time>2017-11-09T11:22:18Z</time>
      </trkpt>
      <trkpt lat="44.72921" lon="5.86376">
        <ele>1593.04</ele>
        <time>2017-11-09T11:22:45Z</time>
      </trkpt>
      <trkpt lat="44.7292" lon="5.86374">
        <ele>1593.52</ele>
        <time>2017-11-09T11:23:11Z</time>
      </trkpt>
      <trkpt lat="44.72921" lon="5.86374">
        <ele>1593.52</ele>
        <time>2017-11-09T11:23:16Z</time>
      </trkpt>
      <trkpt lat="44.72923" lon="5.86371">
        <ele>1594</ele>
        <time>2017-11-09T11:23:28Z</time>
      </trkpt>
      <trkpt lat="44.72924" lon="5.86381">
        <ele>1594.48</ele>
        <time>2017-11-09T11:23:40Z</time>
      </trkpt>
      <trkpt lat="44.72924" lon="5.86377">
        <ele>1594.48</ele>
        <time>2017-11-09T11:24:00Z</time>
      </trkpt>
      <trkpt lat="44.72925" lon="5.86379">
        <ele>1593.52</ele>
        <time>2017-11-09T11:24:16Z</time>
      </trkpt>
      <trkpt lat="44.72926" lon="5.86379">
        <ele>1594</ele>
        <time>2017-11-09T11:24:41Z</time>
      </trkpt>
      <trkpt lat="44.72923" lon="5.8638">
        <ele>1594.48</ele>
        <time>2017-11-09T11:24:54Z</time>
      </trkpt>
      <trkpt lat="44.72923" lon="5.86381">
        <ele>1594.48</ele>
        <time>2017-11-09T11:25:12Z</time>
      </trkpt>
      <trkpt lat="44.72921" lon="5.86381">
        <ele>1594.48</ele>
        <time>2017-11-09T11:25:28Z</time>
      </trkpt>
      <trkpt lat="44.72922" lon="5.86381">
        <ele>1594.48</ele>
        <time>2017-11-09T11:25:54Z</time>
      </trkpt>
      <trkpt lat="44.72922" lon="5.86382">
        <ele>1594.48</ele>
        <time>2017-11-09T11:26:23Z</time>
      </trkpt>
      <trkpt lat="44.72923" lon="5.86382">
        <ele>1594.48</ele>
        <time>2017-11-09T11:26:46Z</time>
      </trkpt>
      <trkpt lat="44.7292" lon="5.86386">
        <ele>1594.48</ele>
        <time>2017-11-09T11:26:59Z</time>
      </trkpt>
      <trkpt lat="44.72914" lon="5.86391">
        <ele>1594</ele>
        <time>2017-11-09T11:27:06Z</time>
      </trkpt>
      <trkpt lat="44.72912" lon="5.86403">
        <ele>1593.04</ele>
        <time>2017-11-09T11:27:16Z</time>
      </trkpt>
      <trkpt lat="44.72907" lon="5.8641">
        <ele>1591.6</ele>
        <time>2017-11-09T11:27:22Z</time>
      </trkpt>
      <trkpt lat="44.72905" lon="5.86415">
        <ele>1591.12</ele>
        <time>2017-11-09T11:27:36Z</time>
      </trkpt>
      <trkpt lat="44.72903" lon="5.86417">
        <ele>1590.64</ele>
        <time>2017-11-09T11:27:49Z</time>
      </trkpt>
      <trkpt lat="44.729" lon="5.86417">
        <ele>1590.16</ele>
        <time>2017-11-09T11:28:11Z</time>
      </trkpt>
      <trkpt lat="44.72901" lon="5.86421">
        <ele>1589.68</ele>
        <time>2017-11-09T11:28:33Z</time>
      </trkpt>
      <trkpt lat="44.72897" lon="5.86431">
        <ele>1587.75</ele>
        <time>2017-11-09T11:28:48Z</time>
      </trkpt>
      <trkpt lat="44.72895" lon="5.86438">
        <ele>1586.31</ele>
        <time>2017-11-09T11:28:57Z</time>
      </trkpt>
      <trkpt lat="44.72886" lon="5.86448">
        <ele>1584.39</ele>
        <time>2017-11-09T11:29:11Z</time>
      </trkpt>
      <trkpt lat="44.72883" lon="5.86451">
        <ele>1583.43</ele>
        <time>2017-11-09T11:29:16Z</time>
      </trkpt>
      <trkpt lat="44.7288" lon="5.86459">
        <ele>1581.51</ele>
        <time>2017-11-09T11:29:23Z</time>
      </trkpt>
      <trkpt lat="44.72876" lon="5.86464">
        <ele>1580.06</ele>
        <time>2017-11-09T11:29:29Z</time>
      </trkpt>
      <trkpt lat="44.72872" lon="5.86468">
        <ele>1578.62</ele>
        <time>2017-11-09T11:29:36Z</time>
      </trkpt>
      <trkpt lat="44.72869" lon="5.86477">
        <ele>1576.7</ele>
        <time>2017-11-09T11:29:43Z</time>
      </trkpt>
      <trkpt lat="44.72861" lon="5.86486">
        <ele>1573.33</ele>
        <time>2017-11-09T11:29:55Z</time>
      </trkpt>
      <trkpt lat="44.72854" lon="5.86495">
        <ele>1570.45</ele>
        <time>2017-11-09T11:30:08Z</time>
      </trkpt>
      <trkpt lat="44.72847" lon="5.86506">
        <ele>1567.09</ele>
        <time>2017-11-09T11:30:21Z</time>
      </trkpt>
      <trkpt lat="44.72845" lon="5.86508">
        <ele>1566.12</ele>
        <time>2017-11-09T11:30:23Z</time>
      </trkpt>
      <trkpt lat="44.72834" lon="5.86513">
        <ele>1562.28</ele>
        <time>2017-11-09T11:30:37Z</time>
      </trkpt>
      <trkpt lat="44.7283" lon="5.86523">
        <ele>1559.4</ele>
        <time>2017-11-09T11:30:47Z</time>
      </trkpt>
      <trkpt lat="44.72823" lon="5.86526">
        <ele>1556.99</ele>
        <time>2017-11-09T11:30:58Z</time>
      </trkpt>
      <trkpt lat="44.72823" lon="5.86527">
        <ele>1556.51</ele>
        <time>2017-11-09T11:31:11Z</time>
      </trkpt>
      <trkpt lat="44.7282" lon="5.86535">
        <ele>1555.07</ele>
        <time>2017-11-09T11:31:18Z</time>
      </trkpt>
      <trkpt lat="44.7282" lon="5.86537">
        <ele>1554.59</ele>
        <time>2017-11-09T11:31:20Z</time>
      </trkpt>
      <trkpt lat="44.72825" lon="5.86547">
        <ele>1552.67</ele>
        <time>2017-11-09T11:31:30Z</time>
      </trkpt>
      <trkpt lat="44.72827" lon="5.86549">
        <ele>1552.19</ele>
        <time>2017-11-09T11:31:33Z</time>
      </trkpt>
      <trkpt lat="44.72829" lon="5.86554">
        <ele>1551.22</ele>
        <time>2017-11-09T11:31:37Z</time>
      </trkpt>
      <trkpt lat="44.72836" lon="5.86568">
        <ele>1548.82</ele>
        <time>2017-11-09T11:31:52Z</time>
      </trkpt>
      <trkpt lat="44.72845" lon="5.86585">
        <ele>1546.9</ele>
        <time>2017-11-09T11:32:09Z</time>
      </trkpt>
      <trkpt lat="44.72848" lon="5.86602">
        <ele>1543.53</ele>
        <time>2017-11-09T11:32:23Z</time>
      </trkpt>
      <trkpt lat="44.72848" lon="5.86605">
        <ele>1543.53</ele>
        <time>2017-11-09T11:32:25Z</time>
      </trkpt>
      <trkpt lat="44.72838" lon="5.86621">
        <ele>1540.17</ele>
        <time>2017-11-09T11:32:41Z</time>
      </trkpt>
      <trkpt lat="44.72827" lon="5.86625">
        <ele>1536.8</ele>
        <time>2017-11-09T11:32:55Z</time>
      </trkpt>
      <trkpt lat="44.72817" lon="5.86625">
        <ele>1533.44</ele>
        <time>2017-11-09T11:33:09Z</time>
      </trkpt>
      <trkpt lat="44.72813" lon="5.8663">
        <ele>1531.52</ele>
        <time>2017-11-09T11:33:25Z</time>
      </trkpt>
      <trkpt lat="44.72811" lon="5.86634">
        <ele>1530.08</ele>
        <time>2017-11-09T11:33:39Z</time>
      </trkpt>
      <trkpt lat="44.72808" lon="5.86634">
        <ele>1529.11</ele>
        <time>2017-11-09T11:33:56Z</time>
      </trkpt>
      <trkpt lat="44.72804" lon="5.86643">
        <ele>1527.19</ele>
        <time>2017-11-09T11:34:11Z</time>
      </trkpt>
      <trkpt lat="44.72797" lon="5.86656">
        <ele>1523.83</ele>
        <time>2017-11-09T11:34:26Z</time>
      </trkpt>
      <trkpt lat="44.72797" lon="5.86662">
        <ele>1522.87</ele>
        <time>2017-11-09T11:34:32Z</time>
      </trkpt>
      <trkpt lat="44.72796" lon="5.86683">
        <ele>1519.5</ele>
        <time>2017-11-09T11:34:49Z</time>
      </trkpt>
      <trkpt lat="44.728" lon="5.86701">
        <ele>1516.14</ele>
        <time>2017-11-09T11:35:03Z</time>
      </trkpt>
      <trkpt lat="44.72801" lon="5.8672">
        <ele>1514.21</ele>
        <time>2017-11-09T11:35:17Z</time>
      </trkpt>
      <trkpt lat="44.72799" lon="5.86736">
        <ele>1512.77</ele>
        <time>2017-11-09T11:35:29Z</time>
      </trkpt>
      <trkpt lat="44.72795" lon="5.8675">
        <ele>1510.37</ele>
        <time>2017-11-09T11:35:41Z</time>
      </trkpt>
      <trkpt lat="44.72787" lon="5.86752">
        <ele>1508.93</ele>
        <time>2017-11-09T11:35:50Z</time>
      </trkpt>
      <trkpt lat="44.72785" lon="5.86753">
        <ele>1508.45</ele>
        <time>2017-11-09T11:35:52Z</time>
      </trkpt>
      <trkpt lat="44.72779" lon="5.86761">
        <ele>1507</ele>
        <time>2017-11-09T11:36:03Z</time>
      </trkpt>
      <trkpt lat="44.72786" lon="5.86779">
        <ele>1505.56</ele>
        <time>2017-11-09T11:36:18Z</time>
      </trkpt>
      <trkpt lat="44.72791" lon="5.86797">
        <ele>1503.16</ele>
        <time>2017-11-09T11:36:33Z</time>
      </trkpt>
      <trkpt lat="44.72791" lon="5.868">
        <ele>1502.68</ele>
        <time>2017-11-09T11:36:35Z</time>
      </trkpt>
      <trkpt lat="44.72784" lon="5.86816">
        <ele>1499.31</ele>
        <time>2017-11-09T11:36:49Z</time>
      </trkpt>
      <trkpt lat="44.72786" lon="5.86825">
        <ele>1497.87</ele>
        <time>2017-11-09T11:36:57Z</time>
      </trkpt>
      <trkpt lat="44.7279" lon="5.86838">
        <ele>1495.47</ele>
        <time>2017-11-09T11:37:12Z</time>
      </trkpt>
      <trkpt lat="44.72791" lon="5.86842">
        <ele>1495.47</ele>
        <time>2017-11-09T11:37:15Z</time>
      </trkpt>
      <trkpt lat="44.72795" lon="5.86855">
        <ele>1493.55</ele>
        <time>2017-11-09T11:37:31Z</time>
      </trkpt>
      <trkpt lat="44.72801" lon="5.86869">
        <ele>1492.1</ele>
        <time>2017-11-09T11:37:45Z</time>
      </trkpt>
      <trkpt lat="44.72808" lon="5.86881">
        <ele>1490.66</ele>
        <time>2017-11-09T11:37:56Z</time>
      </trkpt>
      <trkpt lat="44.72809" lon="5.86883">
        <ele>1490.18</ele>
        <time>2017-11-09T11:37:58Z</time>
      </trkpt>
      <trkpt lat="44.72814" lon="5.86889">
        <ele>1489.7</ele>
        <time>2017-11-09T11:38:04Z</time>
      </trkpt>
      <trkpt lat="44.72817" lon="5.86892">
        <ele>1489.22</ele>
        <time>2017-11-09T11:38:10Z</time>
      </trkpt>
      <trkpt lat="44.72828" lon="5.869">
        <ele>1490.18</ele>
        <time>2017-11-09T11:38:23Z</time>
      </trkpt>
      <trkpt lat="44.72844" lon="5.86905">
        <ele>1487.3</ele>
        <time>2017-11-09T11:38:40Z</time>
      </trkpt>
      <trkpt lat="44.72851" lon="5.86911">
        <ele>1486.34</ele>
        <time>2017-11-09T11:38:48Z</time>
      </trkpt>
      <trkpt lat="44.72858" lon="5.86931">
        <ele>1486.82</ele>
        <time>2017-11-09T11:39:04Z</time>
      </trkpt>
      <trkpt lat="44.72858" lon="5.86932">
        <ele>1486.82</ele>
        <time>2017-11-09T11:39:05Z</time>
      </trkpt>
      <trkpt lat="44.72851" lon="5.86952">
        <ele>1484.41</ele>
        <time>2017-11-09T11:39:21Z</time>
      </trkpt>
      <trkpt lat="44.72848" lon="5.86974">
        <ele>1483.45</ele>
        <time>2017-11-09T11:39:37Z</time>
      </trkpt>
      <trkpt lat="44.72847" lon="5.86982">
        <ele>1482.97</ele>
        <time>2017-11-09T11:39:43Z</time>
      </trkpt>
      <trkpt lat="44.72841" lon="5.86998">
        <ele>1480.09</ele>
        <time>2017-11-09T11:39:57Z</time>
      </trkpt>
      <trkpt lat="44.72839" lon="5.87006">
        <ele>1478.16</ele>
        <time>2017-11-09T11:40:05Z</time>
      </trkpt>
      <trkpt lat="44.72837" lon="5.87023">
        <ele>1475.76</ele>
        <time>2017-11-09T11:40:18Z</time>
      </trkpt>
      <trkpt lat="44.72837" lon="5.8703">
        <ele>1475.28</ele>
        <time>2017-11-09T11:40:23Z</time>
      </trkpt>
      <trkpt lat="44.72836" lon="5.87036">
        <ele>1474.32</ele>
        <time>2017-11-09T11:40:28Z</time>
      </trkpt>
      <trkpt lat="44.72834" lon="5.8706">
        <ele>1472.88</ele>
        <time>2017-11-09T11:40:46Z</time>
      </trkpt>
      <trkpt lat="44.72828" lon="5.87081">
        <ele>1471.92</ele>
        <time>2017-11-09T11:41:03Z</time>
      </trkpt>
      <trkpt lat="44.72821" lon="5.87101">
        <ele>1470.47</ele>
        <time>2017-11-09T11:41:20Z</time>
      </trkpt>
      <trkpt lat="44.72811" lon="5.87124">
        <ele>1469.03</ele>
        <time>2017-11-09T11:41:40Z</time>
      </trkpt>
      <trkpt lat="44.72805" lon="5.87139">
        <ele>1468.07</ele>
        <time>2017-11-09T11:41:53Z</time>
      </trkpt>
      <trkpt lat="44.72797" lon="5.8716">
        <ele>1467.11</ele>
        <time>2017-11-09T11:42:10Z</time>
      </trkpt>
      <trkpt lat="44.72794" lon="5.8718">
        <ele>1465.67</ele>
        <time>2017-11-09T11:42:27Z</time>
      </trkpt>
      <trkpt lat="44.72793" lon="5.87202">
        <ele>1463.26</ele>
        <time>2017-11-09T11:42:44Z</time>
      </trkpt>
      <trkpt lat="44.72792" lon="5.87222">
        <ele>1461.82</ele>
        <time>2017-11-09T11:42:59Z</time>
      </trkpt>
      <trkpt lat="44.7279" lon="5.87242">
        <ele>1460.38</ele>
        <time>2017-11-09T11:43:14Z</time>
      </trkpt>
      <trkpt lat="44.7279" lon="5.87263">
        <ele>1459.9</ele>
        <time>2017-11-09T11:43:29Z</time>
      </trkpt>
      <trkpt lat="44.72789" lon="5.87282">
        <ele>1458.94</ele>
        <time>2017-11-09T11:43:44Z</time>
      </trkpt>
      <trkpt lat="44.72786" lon="5.87305">
        <ele>1457.02</ele>
        <time>2017-11-09T11:44:01Z</time>
      </trkpt>
      <trkpt lat="44.72782" lon="5.8733">
        <ele>1454.61</ele>
        <time>2017-11-09T11:44:20Z</time>
      </trkpt>
      <trkpt lat="44.72778" lon="5.87353">
        <ele>1452.69</ele>
        <time>2017-11-09T11:44:37Z</time>
      </trkpt>
      <trkpt lat="44.72774" lon="5.87373">
        <ele>1451.73</ele>
        <time>2017-11-09T11:44:52Z</time>
      </trkpt>
      <trkpt lat="44.72771" lon="5.87391">
        <ele>1451.25</ele>
        <time>2017-11-09T11:45:06Z</time>
      </trkpt>
      <trkpt lat="44.72767" lon="5.87413">
        <ele>1450.77</ele>
        <time>2017-11-09T11:45:22Z</time>
      </trkpt>
      <trkpt lat="44.72762" lon="5.87432">
        <ele>1447.88</ele>
        <time>2017-11-09T11:45:38Z</time>
      </trkpt>
      <trkpt lat="44.72761" lon="5.87435">
        <ele>1447.88</ele>
        <time>2017-11-09T11:45:40Z</time>
      </trkpt>
      <trkpt lat="44.72757" lon="5.8745">
        <ele>1445</ele>
        <time>2017-11-09T11:45:54Z</time>
      </trkpt>
      <trkpt lat="44.72754" lon="5.87461">
        <ele>1443.56</ele>
        <time>2017-11-09T11:46:05Z</time>
      </trkpt>
      <trkpt lat="44.72749" lon="5.87478">
        <ele>1440.67</ele>
        <time>2017-11-09T11:46:20Z</time>
      </trkpt>
      <trkpt lat="44.72747" lon="5.87483">
        <ele>1440.67</ele>
        <time>2017-11-09T11:46:27Z</time>
      </trkpt>
      <trkpt lat="44.72744" lon="5.87484">
        <ele>1439.23</ele>
        <time>2017-11-09T11:46:30Z</time>
      </trkpt>
      <trkpt lat="44.72744" lon="5.87486">
        <ele>1439.71</ele>
        <time>2017-11-09T11:46:35Z</time>
      </trkpt>
      <trkpt lat="44.72741" lon="5.87489">
        <ele>1438.75</ele>
        <time>2017-11-09T11:46:47Z</time>
      </trkpt>
      <trkpt lat="44.72739" lon="5.87491">
        <ele>1438.27</ele>
        <time>2017-11-09T11:46:50Z</time>
      </trkpt>
      <trkpt lat="44.72734" lon="5.875">
        <ele>1436.83</ele>
        <time>2017-11-09T11:47:01Z</time>
      </trkpt>
      <trkpt lat="44.72734" lon="5.875">
        <ele>1436.83</ele>
        <time>2017-11-09T11:47:02Z</time>
      </trkpt>
      <trkpt lat="44.72725" lon="5.87511">
        <ele>1434.91</ele>
        <time>2017-11-09T11:47:18Z</time>
      </trkpt>
      <trkpt lat="44.72721" lon="5.87518">
        <ele>1433.94</ele>
        <time>2017-11-09T11:47:25Z</time>
      </trkpt>
      <trkpt lat="44.72712" lon="5.87535">
        <ele>1432.5</ele>
        <time>2017-11-09T11:47:39Z</time>
      </trkpt>
      <trkpt lat="44.72702" lon="5.87551">
        <ele>1431.54</ele>
        <time>2017-11-09T11:47:54Z</time>
      </trkpt>
      <trkpt lat="44.72693" lon="5.87564">
        <ele>1431.06</ele>
        <time>2017-11-09T11:48:08Z</time>
      </trkpt>
      <trkpt lat="44.72681" lon="5.87581">
        <ele>1429.62</ele>
        <time>2017-11-09T11:48:25Z</time>
      </trkpt>
      <trkpt lat="44.7267" lon="5.87598">
        <ele>1427.21</ele>
        <time>2017-11-09T11:48:42Z</time>
      </trkpt>
      <trkpt lat="44.72656" lon="5.87614">
        <ele>1424.33</ele>
        <time>2017-11-09T11:49:00Z</time>
      </trkpt>
      <trkpt lat="44.72646" lon="5.87627">
        <ele>1421.93</ele>
        <time>2017-11-09T11:49:17Z</time>
      </trkpt>
      <trkpt lat="44.72636" lon="5.87637">
        <ele>1420</ele>
        <time>2017-11-09T11:49:30Z</time>
      </trkpt>
      <trkpt lat="44.72623" lon="5.8765">
        <ele>1417.12</ele>
        <time>2017-11-09T11:49:46Z</time>
      </trkpt>
      <trkpt lat="44.72608" lon="5.87663">
        <ele>1413.76</ele>
        <time>2017-11-09T11:50:04Z</time>
      </trkpt>
      <trkpt lat="44.72606" lon="5.87664">
        <ele>1413.76</ele>
        <time>2017-11-09T11:50:07Z</time>
      </trkpt>
      <trkpt lat="44.726" lon="5.87673">
        <ele>1412.31</ele>
        <time>2017-11-09T11:50:15Z</time>
      </trkpt>
      <trkpt lat="44.72599" lon="5.87694">
        <ele>1409.43</ele>
        <time>2017-11-09T11:50:30Z</time>
      </trkpt>
      <trkpt lat="44.72599" lon="5.87695">
        <ele>1409.43</ele>
        <time>2017-11-09T11:50:31Z</time>
      </trkpt>
      <trkpt lat="44.72602" lon="5.87711">
        <ele>1407.03</ele>
        <time>2017-11-09T11:50:47Z</time>
      </trkpt>
      <trkpt lat="44.72603" lon="5.87712">
        <ele>1406.55</ele>
        <time>2017-11-09T11:50:48Z</time>
      </trkpt>
      <trkpt lat="44.726" lon="5.87712">
        <ele>1405.1</ele>
        <time>2017-11-09T11:51:02Z</time>
      </trkpt>
      <trkpt lat="44.72601" lon="5.87712">
        <ele>1405.1</ele>
        <time>2017-11-09T11:51:09Z</time>
      </trkpt>
      <trkpt lat="44.726" lon="5.87713">
        <ele>1405.58</ele>
        <time>2017-11-09T11:51:11Z</time>
      </trkpt>
      <trkpt lat="44.72601" lon="5.87714">
        <ele>1405.58</ele>
        <time>2017-11-09T11:51:13Z</time>
      </trkpt>
      <trkpt lat="44.72602" lon="5.87718">
        <ele>1404.62</ele>
        <time>2017-11-09T11:51:20Z</time>
      </trkpt>
      <trkpt lat="44.72608" lon="5.87736">
        <ele>1402.7</ele>
        <time>2017-11-09T11:51:34Z</time>
      </trkpt>
      <trkpt lat="44.72611" lon="5.87748">
        <ele>1400.78</ele>
        <time>2017-11-09T11:51:45Z</time>
      </trkpt>
      <trkpt lat="44.72612" lon="5.8776">
        <ele>1398.86</ele>
        <time>2017-11-09T11:51:58Z</time>
      </trkpt>
      <trkpt lat="44.72613" lon="5.87776">
        <ele>1396.45</ele>
        <time>2017-11-09T11:52:12Z</time>
      </trkpt>
      <trkpt lat="44.72608" lon="5.87793">
        <ele>1394.05</ele>
        <time>2017-11-09T11:52:26Z</time>
      </trkpt>
      <trkpt lat="44.72608" lon="5.87803">
        <ele>1393.09</ele>
        <time>2017-11-09T11:52:32Z</time>
      </trkpt>
      <trkpt lat="44.72608" lon="5.87814">
        <ele>1392.13</ele>
        <time>2017-11-09T11:52:41Z</time>
      </trkpt>
      <trkpt lat="44.72607" lon="5.87825">
        <ele>1390.68</ele>
        <time>2017-11-09T11:52:49Z</time>
      </trkpt>
      <trkpt lat="44.72608" lon="5.87848">
        <ele>1388.28</ele>
        <time>2017-11-09T11:53:05Z</time>
      </trkpt>
      <trkpt lat="44.72609" lon="5.87861">
        <ele>1386.36</ele>
        <time>2017-11-09T11:53:18Z</time>
      </trkpt>
      <trkpt lat="44.72613" lon="5.87883">
        <ele>1384.92</ele>
        <time>2017-11-09T11:53:32Z</time>
      </trkpt>
      <trkpt lat="44.72616" lon="5.87893">
        <ele>1383.96</ele>
        <time>2017-11-09T11:53:39Z</time>
      </trkpt>
      <trkpt lat="44.72617" lon="5.87896">
        <ele>1383.96</ele>
        <time>2017-11-09T11:53:42Z</time>
      </trkpt>
      <trkpt lat="44.72626" lon="5.8791">
        <ele>1381.55</ele>
        <time>2017-11-09T11:53:56Z</time>
      </trkpt>
      <trkpt lat="44.72632" lon="5.87919">
        <ele>1381.07</ele>
        <time>2017-11-09T11:54:06Z</time>
      </trkpt>
      <trkpt lat="44.72641" lon="5.87932">
        <ele>1379.15</ele>
        <time>2017-11-09T11:54:19Z</time>
      </trkpt>
      <trkpt lat="44.72652" lon="5.87946">
        <ele>1376.26</ele>
        <time>2017-11-09T11:54:36Z</time>
      </trkpt>
      <trkpt lat="44.72663" lon="5.87966">
        <ele>1373.38</ele>
        <time>2017-11-09T11:54:53Z</time>
      </trkpt>
      <trkpt lat="44.72666" lon="5.87985">
        <ele>1370.5</ele>
        <time>2017-11-09T11:55:07Z</time>
      </trkpt>
      <trkpt lat="44.72661" lon="5.88001">
        <ele>1368.09</ele>
        <time>2017-11-09T11:55:21Z</time>
      </trkpt>
      <trkpt lat="44.72656" lon="5.88013">
        <ele>1363.77</ele>
        <time>2017-11-09T11:55:29Z</time>
      </trkpt>
      <trkpt lat="44.72655" lon="5.88014">
        <ele>1363.77</ele>
        <time>2017-11-09T11:55:30Z</time>
      </trkpt>
      <trkpt lat="44.72644" lon="5.88033">
        <ele>1364.25</ele>
        <time>2017-11-09T11:55:47Z</time>
      </trkpt>
      <trkpt lat="44.72635" lon="5.88044">
        <ele>1361.84</ele>
        <time>2017-11-09T11:55:59Z</time>
      </trkpt>
      <trkpt lat="44.72633" lon="5.88045">
        <ele>1361.84</ele>
        <time>2017-11-09T11:56:01Z</time>
      </trkpt>
      <trkpt lat="44.7263" lon="5.88047">
        <ele>1360.4</ele>
        <time>2017-11-09T11:56:05Z</time>
      </trkpt>
      <trkpt lat="44.72626" lon="5.88051">
        <ele>1359.92</ele>
        <time>2017-11-09T11:56:10Z</time>
      </trkpt>
      <trkpt lat="44.72613" lon="5.88058">
        <ele>1357.04</ele>
        <time>2017-11-09T11:56:25Z</time>
      </trkpt>
      <trkpt lat="44.726" lon="5.88065">
        <ele>1354.63</ele>
        <time>2017-11-09T11:56:39Z</time>
      </trkpt>
      <trkpt lat="44.72584" lon="5.88075">
        <ele>1352.23</ele>
        <time>2017-11-09T11:56:55Z</time>
      </trkpt>
      <trkpt lat="44.72583" lon="5.88084">
        <ele>1351.27</ele>
        <time>2017-11-09T11:57:02Z</time>
      </trkpt>
      <trkpt lat="44.72583" lon="5.88086">
        <ele>1350.79</ele>
        <time>2017-11-09T11:57:04Z</time>
      </trkpt>
      <trkpt lat="44.7259" lon="5.88092">
        <ele>1348.87</ele>
        <time>2017-11-09T11:57:22Z</time>
      </trkpt>
      <trkpt lat="44.72594" lon="5.88093">
        <ele>1348.87</ele>
        <time>2017-11-09T11:57:44Z</time>
      </trkpt>
      <trkpt lat="44.7259" lon="5.8809">
        <ele>1348.87</ele>
        <time>2017-11-09T11:58:08Z</time>
      </trkpt>
      <trkpt lat="44.72588" lon="5.88087">
        <ele>1348.87</ele>
        <time>2017-11-09T11:58:35Z</time>
      </trkpt>
      <trkpt lat="44.72589" lon="5.88087">
        <ele>1349.35</ele>
        <time>2017-11-09T11:59:12Z</time>
      </trkpt>
      <trkpt lat="44.72588" lon="5.88087">
        <ele>1349.35</ele>
        <time>2017-11-09T11:59:43Z</time>
      </trkpt>
      <trkpt lat="44.72587" lon="5.88089">
        <ele>1349.35</ele>
        <time>2017-11-09T12:00:10Z</time>
      </trkpt>
      <trkpt lat="44.72586" lon="5.88085">
        <ele>1349.35</ele>
        <time>2017-11-09T12:00:50Z</time>
      </trkpt>
      <trkpt lat="44.72586" lon="5.88087">
        <ele>1349.83</ele>
        <time>2017-11-09T12:01:18Z</time>
      </trkpt>
      <trkpt lat="44.72586" lon="5.88087">
        <ele>1349.83</ele>
        <time>2017-11-09T12:01:51Z</time>
      </trkpt>
      <trkpt lat="44.72588" lon="5.88086">
        <ele>1349.83</ele>
        <time>2017-11-09T12:02:20Z</time>
      </trkpt>
      <trkpt lat="44.72587" lon="5.88088">
        <ele>1349.83</ele>
        <time>2017-11-09T12:02:48Z</time>
      </trkpt>
      <trkpt lat="44.72587" lon="5.88088">
        <ele>1349.83</ele>
        <time>2017-11-09T12:03:09Z</time>
      </trkpt>
      <trkpt lat="44.72586" lon="5.8809">
        <ele>1349.83</ele>
        <time>2017-11-09T12:03:33Z</time>
      </trkpt>
      <trkpt lat="44.72594" lon="5.88103">
        <ele>1348.39</ele>
        <time>2017-11-09T12:03:48Z</time>
      </trkpt>
      <trkpt lat="44.72595" lon="5.8812">
        <ele>1345.98</ele>
        <time>2017-11-09T12:04:03Z</time>
      </trkpt>
      <trkpt lat="44.72587" lon="5.88135">
        <ele>1343.58</ele>
        <time>2017-11-09T12:04:17Z</time>
      </trkpt>
      <trkpt lat="44.72577" lon="5.88146">
        <ele>1341.18</ele>
        <time>2017-11-09T12:04:31Z</time>
      </trkpt>
      <trkpt lat="44.7257" lon="5.88155">
        <ele>1339.73</ele>
        <time>2017-11-09T12:04:42Z</time>
      </trkpt>
      <trkpt lat="44.72559" lon="5.88164">
        <ele>1337.81</ele>
        <time>2017-11-09T12:04:57Z</time>
      </trkpt>
      <trkpt lat="44.72546" lon="5.88178">
        <ele>1334.93</ele>
        <time>2017-11-09T12:05:14Z</time>
      </trkpt>
      <trkpt lat="44.72533" lon="5.88193">
        <ele>1332.04</ele>
        <time>2017-11-09T12:05:32Z</time>
      </trkpt>
      <trkpt lat="44.72524" lon="5.88206">
        <ele>1328.68</ele>
        <time>2017-11-09T12:05:47Z</time>
      </trkpt>
      <trkpt lat="44.72516" lon="5.88221">
        <ele>1326.28</ele>
        <time>2017-11-09T12:06:03Z</time>
      </trkpt>
      <trkpt lat="44.72515" lon="5.88223">
        <ele>1326.28</ele>
        <time>2017-11-09T12:06:04Z</time>
      </trkpt>
      <trkpt lat="44.72507" lon="5.88241">
        <ele>1322.43</ele>
        <time>2017-11-09T12:06:20Z</time>
      </trkpt>
      <trkpt lat="44.72496" lon="5.88259">
        <ele>1319.55</ele>
        <time>2017-11-09T12:06:38Z</time>
      </trkpt>
      <trkpt lat="44.72483" lon="5.88266">
        <ele>1316.66</ele>
        <time>2017-11-09T12:06:53Z</time>
      </trkpt>
      <trkpt lat="44.72473" lon="5.88271">
        <ele>1314.74</ele>
        <time>2017-11-09T12:07:05Z</time>
      </trkpt>
      <trkpt lat="44.72464" lon="5.88291">
        <ele>1312.34</ele>
        <time>2017-11-09T12:07:22Z</time>
      </trkpt>
      <trkpt lat="44.72461" lon="5.88311">
        <ele>1309.93</ele>
        <time>2017-11-09T12:07:37Z</time>
      </trkpt>
      <trkpt lat="44.7246" lon="5.8833">
        <ele>1307.53</ele>
        <time>2017-11-09T12:07:53Z</time>
      </trkpt>
      <trkpt lat="44.72454" lon="5.88348">
        <ele>1304.65</ele>
        <time>2017-11-09T12:08:07Z</time>
      </trkpt>
      <trkpt lat="44.72453" lon="5.88349">
        <ele>1304.65</ele>
        <time>2017-11-09T12:08:08Z</time>
      </trkpt>
      <trkpt lat="44.72447" lon="5.88349">
        <ele>1303.69</ele>
        <time>2017-11-09T12:08:22Z</time>
      </trkpt>
      <trkpt lat="44.72432" lon="5.88363">
        <ele>1300.8</ele>
        <time>2017-11-09T12:08:39Z</time>
      </trkpt>
      <trkpt lat="44.72418" lon="5.88372">
        <ele>1297.92</ele>
        <time>2017-11-09T12:08:55Z</time>
      </trkpt>
      <trkpt lat="44.7241" lon="5.88382">
        <ele>1296.48</ele>
        <time>2017-11-09T12:09:08Z</time>
      </trkpt>
      <trkpt lat="44.72416" lon="5.88394">
        <ele>1294.55</ele>
        <time>2017-11-09T12:09:20Z</time>
      </trkpt>
      <trkpt lat="44.7243" lon="5.88399">
        <ele>1293.59</ele>
        <time>2017-11-09T12:09:36Z</time>
      </trkpt>
      <trkpt lat="44.72431" lon="5.88399">
        <ele>1293.59</ele>
        <time>2017-11-09T12:09:41Z</time>
      </trkpt>
      <trkpt lat="44.72433" lon="5.884">
        <ele>1293.59</ele>
        <time>2017-11-09T12:09:44Z</time>
      </trkpt>
      <trkpt lat="44.72446" lon="5.88411">
        <ele>1293.11</ele>
        <time>2017-11-09T12:09:58Z</time>
      </trkpt>
      <trkpt lat="44.72461" lon="5.88424">
        <ele>1292.63</ele>
        <time>2017-11-09T12:10:16Z</time>
      </trkpt>
      <trkpt lat="44.72473" lon="5.88437">
        <ele>1292.15</ele>
        <time>2017-11-09T12:10:31Z</time>
      </trkpt>
      <trkpt lat="44.72484" lon="5.88454">
        <ele>1290.71</ele>
        <time>2017-11-09T12:10:48Z</time>
      </trkpt>
      <trkpt lat="44.72493" lon="5.88468">
        <ele>1288.78</ele>
        <time>2017-11-09T12:11:02Z</time>
      </trkpt>
      <trkpt lat="44.72497" lon="5.88487">
        <ele>1285.9</ele>
        <time>2017-11-09T12:11:17Z</time>
      </trkpt>
      <trkpt lat="44.72503" lon="5.88502">
        <ele>1283.5</ele>
        <time>2017-11-09T12:11:30Z</time>
      </trkpt>
      <trkpt lat="44.72513" lon="5.88513">
        <ele>1280.61</ele>
        <time>2017-11-09T12:11:45Z</time>
      </trkpt>
      <trkpt lat="44.72522" lon="5.8852">
        <ele>1279.17</ele>
        <time>2017-11-09T12:11:55Z</time>
      </trkpt>
      <trkpt lat="44.72536" lon="5.88525">
        <ele>1276.77</ele>
        <time>2017-11-09T12:12:11Z</time>
      </trkpt>
      <trkpt lat="44.72553" lon="5.88526">
        <ele>1274.36</ele>
        <time>2017-11-09T12:12:27Z</time>
      </trkpt>
      <trkpt lat="44.72566" lon="5.88523">
        <ele>1272.92</ele>
        <time>2017-11-09T12:12:41Z</time>
      </trkpt>
      <trkpt lat="44.72581" lon="5.88522">
        <ele>1270.52</ele>
        <time>2017-11-09T12:12:56Z</time>
      </trkpt>
      <trkpt lat="44.72597" lon="5.88522">
        <ele>1269.56</ele>
        <time>2017-11-09T12:13:12Z</time>
      </trkpt>
      <trkpt lat="44.7261" lon="5.88521">
        <ele>1269.08</ele>
        <time>2017-11-09T12:13:26Z</time>
      </trkpt>
      <trkpt lat="44.72625" lon="5.88518">
        <ele>1269.08</ele>
        <time>2017-11-09T12:13:41Z</time>
      </trkpt>
      <trkpt lat="44.7264" lon="5.88513">
        <ele>1268.12</ele>
        <time>2017-11-09T12:13:58Z</time>
      </trkpt>
      <trkpt lat="44.72656" lon="5.88515">
        <ele>1266.19</ele>
        <time>2017-11-09T12:14:13Z</time>
      </trkpt>
      <trkpt lat="44.72673" lon="5.88532">
        <ele>1263.31</ele>
        <time>2017-11-09T12:14:30Z</time>
      </trkpt>
      <trkpt lat="44.72687" lon="5.88547">
        <ele>1261.39</ele>
        <time>2017-11-09T12:14:48Z</time>
      </trkpt>
      <trkpt lat="44.72704" lon="5.88555">
        <ele>1259.94</ele>
        <time>2017-11-09T12:15:06Z</time>
      </trkpt>
      <trkpt lat="44.72721" lon="5.88559">
        <ele>1258.98</ele>
        <time>2017-11-09T12:15:22Z</time>
      </trkpt>
      <trkpt lat="44.72735" lon="5.88562">
        <ele>1258.02</ele>
        <time>2017-11-09T12:15:38Z</time>
      </trkpt>
      <trkpt lat="44.72749" lon="5.88572">
        <ele>1257.54</ele>
        <time>2017-11-09T12:15:54Z</time>
      </trkpt>
      <trkpt lat="44.72763" lon="5.88587">
        <ele>1256.58</ele>
        <time>2017-11-09T12:16:12Z</time>
      </trkpt>
      <trkpt lat="44.72774" lon="5.886">
        <ele>1256.1</ele>
        <time>2017-11-09T12:16:27Z</time>
      </trkpt>
      <trkpt lat="44.72783" lon="5.8862">
        <ele>1255.62</ele>
        <time>2017-11-09T12:16:45Z</time>
      </trkpt>
      <trkpt lat="44.72787" lon="5.88643">
        <ele>1255.14</ele>
        <time>2017-11-09T12:17:02Z</time>
      </trkpt>
      <trkpt lat="44.72791" lon="5.88667">
        <ele>1254.66</ele>
        <time>2017-11-09T12:17:20Z</time>
      </trkpt>
      <trkpt lat="44.72799" lon="5.88674">
        <ele>1255.14</ele>
        <time>2017-11-09T12:17:30Z</time>
      </trkpt>
      <trkpt lat="44.72815" lon="5.88684">
        <ele>1255.14</ele>
        <time>2017-11-09T12:17:47Z</time>
      </trkpt>
      <trkpt lat="44.72832" lon="5.88696">
        <ele>1255.14</ele>
        <time>2017-11-09T12:18:06Z</time>
      </trkpt>
      <trkpt lat="44.72847" lon="5.88707">
        <ele>1255.14</ele>
        <time>2017-11-09T12:18:24Z</time>
      </trkpt>
      <trkpt lat="44.7286" lon="5.88718">
        <ele>1255.14</ele>
        <time>2017-11-09T12:18:40Z</time>
      </trkpt>
      <trkpt lat="44.72873" lon="5.88728">
        <ele>1255.14</ele>
        <time>2017-11-09T12:18:56Z</time>
      </trkpt>
      <trkpt lat="44.72877" lon="5.88728">
        <ele>1255.14</ele>
        <time>2017-11-09T12:19:01Z</time>
      </trkpt>
      <trkpt lat="44.7289" lon="5.88734">
        <ele>1255.62</ele>
        <time>2017-11-09T12:19:17Z</time>
      </trkpt>
      <trkpt lat="44.72894" lon="5.88737">
        <ele>1256.1</ele>
        <time>2017-11-09T12:19:31Z</time>
      </trkpt>
      <trkpt lat="44.72891" lon="5.88736">
        <ele>1256.1</ele>
        <time>2017-11-09T12:19:47Z</time>
      </trkpt>
      <trkpt lat="44.7289" lon="5.88739">
        <ele>1256.1</ele>
        <time>2017-11-09T12:20:09Z</time>
      </trkpt>
      <trkpt lat="44.72888" lon="5.8874">
        <ele>1256.1</ele>
        <time>2017-11-09T12:20:37Z</time>
      </trkpt>
      <trkpt lat="44.72888" lon="5.88738">
        <ele>1256.1</ele>
        <time>2017-11-09T12:20:51Z</time>
      </trkpt>
      <trkpt lat="44.72894" lon="5.88736">
        <ele>1256.1</ele>
        <time>2017-11-09T12:21:07Z</time>
      </trkpt>
      <trkpt lat="44.72894" lon="5.88738">
        <ele>1256.1</ele>
        <time>2017-11-09T12:21:31Z</time>
      </trkpt>
      <trkpt lat="44.72892" lon="5.88735">
        <ele>1256.58</ele>
        <time>2017-11-09T12:21:50Z</time>
      </trkpt>
      <trkpt lat="44.72892" lon="5.88736">
        <ele>1256.1</ele>
        <time>2017-11-09T12:22:10Z</time>
      </trkpt>
      <trkpt lat="44.72891" lon="5.8874">
        <ele>1256.1</ele>
        <time>2017-11-09T12:22:36Z</time>
      </trkpt>
    </trkseg>
  </trk>
</gpx>